Flight Track Log - Related Links

Times and Time Zones

All times are in EDT time to prevent confusion due to time zone crossing. See the VIR19 flight status page for this flight to view local times or setup timezone preferences in your user account.

Time Position Orientation Groundspeed Altitude Reporting Facility
EDT Latitude Longitude Course Direction KTS MPH feet Rate Location/Type
Tue 07:32:59 AM 51.4777 -0.4666 271° West 160 184 100  Level FlightAware ADS-B
Tue 07:33:14 AM 51.4777 -0.4856 272° West 160 184 600 2,348 Climbing FlightAware ADS-B
Tue 07:33:22 AM 51.4777 -0.4346 270° West 160 184 1,000 2,000 Climbing FlightAware ADS-B
Tue 07:33:29 AM 51.4777 -0.5021 269° West 161 185 1,100 1,565 Climbing FlightAware ADS-B
Tue 07:33:45 AM 51.4773 -0.5210 269° West 160 184 1,600 1,909 Climbing FlightAware ADS-B
Tue 07:33:51 AM 51.4772 -0.5293 269° West 161 185 1,800 1,714 Climbing FlightAware ADS-B
Tue 07:33:59 AM 51.4771 -0.5389 270° West 164 189 2,000 1,091 Climbing FlightAware ADS-B
Tue 07:34:02 AM 51.4772 -0.5426 272° West 170 196 2,000  Level FlightAware ADS-B
Tue 07:34:05 AM 51.4772 -0.5439 275° West 173 199 2,000 1,000 Level FlightAware ADS-B
Tue 07:34:08 AM 51.4778 -0.5504 281° West 178 205 2,100 1,200 Climbing FlightAware ADS-B
Tue 07:34:10 AM 51.4779 -0.5516 282° West 179 206 2,100  Level FlightAware ADS-B
Tue 07:34:12 AM 51.4787 -0.5556 288° West 185 213 2,100 1,500 Level FlightAware ADS-B
Tue 07:34:14 AM 51.4792 -0.5581 292° West 190 219 2,200 1,500 Climbing FlightAware ADS-B
Tue 07:34:16 AM 51.4799 -0.5607 293° West 192 221 2,200 500 Level FlightAware ADS-B
Tue 07:34:26 AM 51.4840 -0.5727 299° West 206 237 2,300 923 Climbing FlightAware ADS-B
Tue 07:34:29 AM 51.4851 -0.5768 300° West 209 241 2,400 1,636 Climbing FlightAware ADS-B
Tue 07:34:37 AM 51.4894 -0.5891 300° West 213 245 2,600 1,200 Climbing FlightAware ADS-B
Tue 07:34:44 AM 51.4930 -0.5988 300° West 219 252 2,700 800 Climbing FlightAware ADS-B
Tue 07:34:52 AM 51.4971 -0.6105 299° West 227 261 2,800 667 Climbing FlightAware ADS-B
Tue 07:34:53 AM 51.4973 -0.6104 299° West 229 264 2,800 857 Level FlightAware ADS-B
Tue 07:34:59 AM 51.5004 -0.6195 299° West 232 267 2,900 1,500 Climbing FlightAware ADS-B
Tue 07:35:05 AM 51.5034 -0.6286 298° West 234 269 3,100 2,400 Climbing FlightAware ADS-B
Tue 07:35:09 AM 51.5031 -0.6286 298° West 238 274 3,300 2,000 Climbing FlightAware ADS-B
Tue 07:35:14 AM 51.5084 -0.6441 298° West 242 278 3,400 1,091 Climbing FlightAware ADS-B
Tue 07:35:20 AM 51.5113 -0.6521 298° West 245 282 3,500 1,636 Climbing FlightAware ADS-B
Tue 07:35:25 AM 51.5141 -0.6600 301° West 249 287 3,700 2,000 Climbing FlightAware ADS-B
Tue 07:35:29 AM 51.5173 -0.6677 308° West 254 292 3,800 2,250 Climbing FlightAware ADS-B
Tue 07:35:33 AM 51.5203 -0.6733 315° West 259 298 4,000 2,400 Climbing FlightAware ADS-B
Tue 07:35:34 AM 51.5212 -0.6745 318° Northwest 262 302 4,000  Level FlightAware ADS-B
Tue 07:35:36 AM 51.5233 -0.6770 322° Northwest 265 305 4,000 2,000 Level FlightAware ADS-B
Tue 07:35:40 AM 51.5267 -0.6801 329° Northwest 270 311 4,200 2,400 Climbing FlightAware ADS-B
Tue 07:35:41 AM 51.5284 -0.6812 331° Northwest 277 319 4,200 3,000 Level FlightAware ADS-B
Tue 07:35:44 AM 51.5321 -0.6843 340° North 273 314 4,400 4,000 Climbing FlightAware ADS-B
Tue 07:35:47 AM 51.5344 -0.6856 344° North 274 315 4,600 4,800 Climbing FlightAware ADS-B
Tue 07:35:49 AM 51.5376 -0.6866 347° North 275 316 4,800 4,000 Climbing FlightAware ADS-B
Tue 07:35:50 AM 51.5389 -0.6871 347° North 274 315 4,800 3,000 Level FlightAware ADS-B
Tue 07:35:53 AM 51.5431 -0.6889 348° North 276 318 5,000 3,000 Climbing FlightAware ADS-B
Tue 07:35:56 AM 51.5473 -0.6899 352° North 280 322 5,100 2,000 Climbing FlightAware ADS-B
Tue 07:35:59 AM 51.5504 -0.6904 355° North 282 325 5,200 2,000 Climbing FlightAware ADS-B
Tue 07:36:02 AM 51.5553 -0.6908 359° North 288 331 5,300 1,500 Climbing FlightAware ADS-B
Tue 07:36:03 AM 51.5546 -0.6908 359° North 288 331 5,300  Level FlightAware ADS-B (EGLF / FAB)
Tue 07:36:04 AM 51.5573 -0.6908 North 291 335 5,300 2,000 Level FlightAware ADS-B
Tue 07:36:06 AM 51.5599 -0.6908 North 291 335 5,400 2,000 Climbing FlightAware ADS-B
Tue 07:36:07 AM 51.5604 -0.6908 North 292 336 5,400 2,571 Level FlightAware ADS-B
Tue 07:36:20 AM 51.5779 -0.6897 North 293 337 6,000 3,000 Climbing FlightAware ADS-B
Tue 07:36:21 AM 51.5800 -0.6896 North 292 336 6,100 4,000 Climbing FlightAware ADS-B
Tue 07:36:23 AM 51.5814 -0.6895 North 292 336 6,200 2,182 Climbing FlightAware ADS-B
Tue 07:36:32 AM 51.5959 -0.6893 North 292 336 6,500 2,000 Climbing FlightAware ADS-B
Tue 07:36:35 AM 51.5982 -0.6893 North 293 337 6,600 1,500 Climbing FlightAware ADS-B
Tue 07:36:36 AM 51.6001 -0.6893 360° North 292 336 6,600 1,200 Level FlightAware ADS-B
Tue 07:36:40 AM 51.6053 -0.6894 359° North 294 338 6,700 1,385 Climbing FlightAware ADS-B
Tue 07:36:49 AM 51.6176 -0.6899 358° North 290 334 6,900 1,200 Climbing FlightAware ADS-B
Tue 07:36:55 AM 51.6254 -0.6904 358° North 289 333 7,000 462 Climbing FlightAware ADS-B
Tue 07:37:02 AM 51.6353 -0.6910 357° North 286 329 7,000  Level FlightAware ADS-B
Tue 07:37:13 AM 51.6487 -0.6922 357° North 286 329 7,000  Level FlightAware ADS-B (EGLC / LCY)
Tue 07:37:17 AM 51.6555 -0.6927 358° North 286 329 7,000  Level FlightAware ADS-B
Tue 07:37:24 AM 51.6595 -0.6930 358° North 285 328 7,000  Level FlightAware ADS-B
Tue 07:37:28 AM 51.6694 -0.6936 358° North 275 316 7,000  Level FlightAware ADS-B (EHDB)
Tue 07:37:32 AM 51.6757 -0.6941 357° North 283 326 7,000  Level FlightAware ADS-B
Tue 07:37:43 AM 51.6899 -0.6953 357° North 282 325 7,000  Level FlightAware ADS-B
Tue 07:37:51 AM 51.7003 -0.6961 357° North 281 323 7,000  Level FlightAware ADS-B
Tue 07:37:58 AM 51.7090 -0.6968 357° North 280 322 7,000  Level FlightAware ADS-B (EGLC / LCY)
Tue 07:38:07 AM 51.7202 -0.6977 357° North 281 323 7,000  Level FlightAware ADS-B
Tue 07:38:13 AM 51.7263 -0.6982 357° North 283 326 7,000  Level FlightAware ADS-B
Tue 07:38:23 AM 51.7414 -0.6995 357° North 286 329 7,000  Level FlightAware ADS-B
Tue 07:38:29 AM 51.7484 -0.7002 357° North 286 329 7,000  Level FlightAware ADS-B (EGLC / LCY)
Tue 07:38:39 AM 51.7625 -0.7013 357° North 285 328 7,000  Level FlightAware ADS-B
Tue 07:38:47 AM 51.7709 -0.7020 357° North 285 328 7,000  Level FlightAware ADS-B (EGLF / FAB)
Tue 07:38:54 AM 51.7824 -0.7028 357° North 286 329 7,000  Level FlightAware ADS-B
Tue 07:39:02 AM 51.7936 -0.7037 357° North 285 328 7,000  Level FlightAware ADS-B (EGLC / LCY)
Tue 07:39:09 AM 51.8026 -0.7046 357° North 287 330 7,000 1,200 Level FlightAware ADS-B
Tue 07:39:17 AM 51.8097 -0.7051 357° North 289 333 7,300 2,625 Climbing FlightAware ADS-B (EGLF / FAB)
Tue 07:39:25 AM 51.8244 -0.7063 358° North 289 333 7,700 2,400 Climbing FlightAware ADS-B
Tue 07:39:32 AM 51.8311 -0.7068 358° North 289 333 7,900 2,250 Climbing FlightAware ADS-B (EGLC / LCY)
Tue 07:39:41 AM 51.8450 -0.7077 357° North 290 334 8,300 2,400 Climbing FlightAware ADS-B
Tue 07:39:52 AM 51.8597 -0.7088 358° North 290 334 8,700 2,400 Climbing FlightAware ADS-B (EGLC / LCY)
Tue 07:39:56 AM 51.8655 -0.7091 358° North 290 334 8,900 2,000 Climbing FlightAware ADS-B
Tue 07:40:07 AM 51.8766 -0.7097 358° North 294 338 9,200 1,714 Climbing FlightAware ADS-B (EGLF / FAB)
Tue 07:40:10 AM 51.8847 -0.7101 359° North 297 342 9,300 2,250 Climbing FlightAware ADS-B
Tue 07:40:15 AM 51.8907 -0.7100 North 300 345 9,500 1,500 Climbing FlightAware ADS-B
Tue 07:40:18 AM 51.8952 -0.7095 North 306 352 9,500 857 Level FlightAware ADS-B
Tue 07:40:22 AM 51.9014 -0.7075 13° North 315 362 9,600 1,714 Climbing FlightAware ADS-B
Tue 07:40:25 AM 51.9054 -0.7057 17° North 320 368 9,700 2,000 Climbing FlightAware ADS-B
Tue 07:40:28 AM 51.9098 -0.7033 20° North 323 372 9,800 2,000 Climbing FlightAware ADS-B
Tue 07:40:34 AM 51.9153 -0.6996 24° Northeast 327 376 10,000 2,143 Climbing FlightAware ADS-B (EGLC / LCY)
Tue 07:40:42 AM 51.9294 -0.6894 25° Northeast 329 379 10,300 1,364 Climbing FlightAware ADS-B (EGLF / FAB)
Tue 07:40:56 AM 51.9482 -0.6751 25° Northeast 344 396 10,500 800 Climbing FlightAware ADS-B
Tue 07:41:12 AM 51.9705 -0.6583 25° Northeast 360 414 10,700 800 Climbing FlightAware ADS-B (EGLC / LCY)
Tue 07:41:26 AM 51.9938 -0.6414 24° Northeast 372 428 10,900 750 Climbing FlightAware ADS-B
Tue 07:41:36 AM 52.0064 -0.6321 24° Northeast 381 438 11,000 1,000 Climbing FlightAware ADS-B (EGLF / FAB)
Tue 07:41:56 AM 52.0433 -0.6046 24° Northeast 396 456 11,400 1,091 Climbing FlightAware ADS-B
Tue 07:42:09 AM 52.0648 -0.5914 19° North 400 460 11,600 900 Climbing FlightAware ADS-B
Tue 07:42:16 AM 52.0776 -0.5861 13° North 401 461 11,700 545 Climbing FlightAware ADS-B
Tue 07:42:20 AM 52.0862 -0.5834 North 401 461 11,700 1,000 Level FlightAware ADS-B
Tue 07:42:28 AM 52.0993 -0.5814 North 401 461 11,900 1,200 Climbing FlightAware ADS-B
Tue 07:42:30 AM 52.1021 -0.5811 North 401 461 11,900 1,000 Level FlightAware ADS-B
Tue 07:42:34 AM 52.1119 -0.5811 358° North 400 460 12,000 1,200 Climbing FlightAware ADS-B
Tue 07:42:35 AM 52.1082 -0.5811 357° North 400 460 12,000 750 Level FlightAware ADS-B (EGLF / FAB)
Tue 07:42:42 AM 52.1270 -0.5832 352° North 400 460 12,100 1,059 Climbing FlightAware ADS-B
Tue 07:42:52 AM 52.1432 -0.5883 347° North 397 457 12,300 1,500 Climbing FlightAware ADS-B
Tue 07:42:54 AM 52.1477 -0.5907 344° North 395 455 12,400 2,000 Climbing FlightAware ADS-B
Tue 07:42:58 AM 52.1537 -0.5934 341° North 394 453 12,500 2,000 Climbing FlightAware ADS-B
Tue 07:43:12 AM 52.1780 -0.6103 335° Northwest 390 449 13,000 2,250 Climbing FlightAware ADS-B
Tue 07:43:14 AM 52.1670 -0.6019 337° Northwest 391 450 13,100 2,710 Climbing FlightAware ADS-B
Tue 07:43:43 AM 52.2300 -0.6486 336° Northwest 401 461 14,400 2,727 Climbing FlightAware ADS-B
Tue 07:43:47 AM 52.2357 -0.6522 336° Northwest 402 463 14,600 2,516 Climbing FlightAware ADS-B (EHDB)
Tue 07:44:14 AM 52.2824 -0.6860 336° Northwest 410 472 15,700 2,833 Climbing FlightAware ADS-B
Tue 07:44:23 AM 52.2967 -0.6976 335° Northwest 412 474 16,300 2,903 Climbing FlightAware ADS-B (EGLF / FAB)
Tue 07:44:45 AM 52.3358 -0.7270 334° Northwest 413 475 17,200 2,200 Climbing FlightAware ADS-B
Tue 07:44:53 AM 52.3436 -0.7337 335° Northwest 414 476 17,400 2,842 Climbing FlightAware ADS-B
Tue 07:45:04 AM 52.3688 -0.7530 333° Northwest 416 479 18,100 2,714 Climbing FlightAware ADS-B
Tue 07:45:35 AM 52.4207 -0.8009 330° Northwest 420 483 19,300 2,000 Climbing FlightAware ADS-B
Tue 07:45:37 AM 52.4154 -0.7961 330° Northwest 420 483 19,200 2,500 Descending FlightAware ADS-B
Tue 07:45:47 AM 52.4425 -0.8215 331° Northwest 425 489 19,800 2,488 Climbing FlightAware ADS-B (EHDB)
Tue 07:46:18 AM 52.4957 -0.8698 330° Northwest 423 487 20,900 2,118 Climbing FlightAware ADS-B
Tue 07:46:21 AM 52.5016 -0.8746 332° Northwest 438 504 21,000 1,846 Climbing FlightAware ADS-B
Tue 07:46:31 AM 52.5190 -0.8902 332° Northwest 441 507 21,300 1,500 Climbing FlightAware ADS-B (EGHH / BOH)
Tue 07:46:37 AM 52.5293 -0.8983 332° Northwest 439 505 21,400 1,875 Climbing FlightAware ADS-B
Tue 07:47:03 AM 52.5750 -0.9409 331° Northwest 451 519 22,300 2,125 Climbing FlightAware ADS-B
Tue 07:47:25 AM 52.6172 -0.9801 330° Northwest 455 524 23,100 2,000 Climbing FlightAware ADS-B
Tue 07:47:36 AM 52.6357 -0.9972 330° Northwest 450 518 23,400 2,129 Climbing FlightAware ADS-B
Tue 07:47:56 AM 52.6733 -1.0322 330° Northwest 460 529 24,200 2,200 Climbing FlightAware ADS-B
Tue 07:48:06 AM 52.6910 -1.0498 330° Northwest 463 533 24,500 1,935 Climbing FlightAware ADS-B
Tue 07:48:27 AM 52.7319 -1.0888 330° Northwest 467 537 25,200 2,000 Climbing FlightAware ADS-B
Tue 07:48:36 AM 52.7478 -1.1030 330° Northwest 468 539 25,500 2,000 Climbing FlightAware ADS-B
Tue 07:48:57 AM 52.7881 -1.1430 329° Northwest 470 541 26,200 2,118 Climbing FlightAware ADS-B
Tue 07:49:10 AM 52.8104 -1.1651 329° Northwest 470 541 26,700 1,742 Climbing FlightAware ADS-B
Tue 07:49:28 AM 52.8449 -1.1981 330° Northwest 475 547 27,100 2,222 Climbing FlightAware ADS-B
Tue 07:49:37 AM 52.8553 -1.2090 330° Northwest 472 543 27,700 3,231 Climbing FlightAware ADS-B
Tue 07:49:41 AM 52.8687 -1.2217 330° Northwest 470 541 27,800 2,667 Climbing FlightAware ADS-B
Tue 07:50:04 AM 52.9127 -1.2659 328° Northwest 461 531 28,900 2,571 Climbing FlightAware ADS-B
Tue 07:50:16 AM 52.9335 -1.2864 328° Northwest 461 531 29,300 1,154 Climbing FlightAware ADS-B
Tue 07:50:30 AM 52.9586 -1.3126 328° Northwest 454 522 29,400 1,909 Climbing FlightAware ADS-B (EGGP / LPL)
Tue 07:50:38 AM 52.9737 -1.3275 329° Northwest 460 529 30,000 2,600 Climbing FlightAware ADS-B
Tue 07:51:00 AM 53.0139 -1.3693 329° Northwest 452 520 30,700 2,000 Climbing FlightAware ADS-B (EHDB)
Tue 07:51:14 AM 53.0398 -1.3950 328° Northwest 458 527 31,200 1,750 Climbing FlightAware ADS-B
Tue 07:51:24 AM 53.0563 -1.4116 329° Northwest 459 528 31,400 1,091 Climbing FlightAware ADS-B (EGLF / FAB)
Tue 07:51:36 AM 53.0779 -1.4336 328° Northwest 452 520 31,600 1,364 Climbing FlightAware ADS-B (EGGP / LPL)
Tue 07:51:46 AM 53.0962 -1.4518 328° Northwest 453 521 31,900 1,412 Climbing FlightAware ADS-B
Tue 07:51:53 AM 53.1095 -1.4646 329° Northwest 459 528 32,000 667 Climbing FlightAware ADS-B
Tue 07:51:55 AM 53.1135 -1.4701 328° Northwest 453 521 32,000  Level FlightAware ADS-B (EGGP / LPL)
Tue 07:52:15 AM 53.1502 -1.5061 332° Northwest 463 533 32,000  Level FlightAware ADS-B
Tue 07:52:24 AM 53.1676 -1.5202 335° Northwest 466 536 32,000  Level FlightAware ADS-B
Tue 07:52:27 AM 53.1736 -1.5245 335° Northwest 460 529 32,000  Level FlightAware ADS-B
Tue 07:52:59 AM 53.2356 -1.5700 336° Northwest 468 539 32,000  Level FlightAware ADS-B (EGCW)
Tue 07:53:13 AM 53.2645 -1.5922 336° Northwest 469 540 32,000  Level FlightAware ADS-B
Tue 07:53:16 AM 53.2645 -1.5922 336° Northwest 468 539 32,000  Level FlightAware ADS-B
Tue 07:53:43 AM 53.3239 -1.6375 335° Northwest 468 539 32,000  Level FlightAware ADS-B
Tue 07:53:44 AM 53.3259 -1.6391 334° Northwest 461 531 32,000  Level FlightAware ADS-B
Tue 07:53:50 AM 53.3325 -1.6437 335° Northwest 468 539 32,000  Level FlightAware ADS-B (EGCC / MAN)
Tue 07:54:14 AM 53.3839 -1.6859 334° Northwest 469 540 32,000  Level FlightAware ADS-B
Tue 07:54:20 AM 53.3943 -1.6938 334° Northwest 468 539 32,000  Level FlightAware ADS-B
Tue 07:54:45 AM 53.4434 -1.7333 334° Northwest 467 537 32,000  Level FlightAware ADS-B
Tue 07:54:54 AM 53.4617 -1.7490 334° Northwest 467 537 32,000  Level FlightAware ADS-B (EGCC / MAN)
Tue 07:55:16 AM 53.5034 -1.7824 334° Northwest 467 537 32,000  Level FlightAware ADS-B
Tue 07:55:26 AM 53.5234 -1.7998 334° Northwest 466 536 32,000  Level FlightAware ADS-B (EGGP / LPL)
Tue 07:55:46 AM 53.5626 -1.8316 334° Northwest 467 537 32,000  Level FlightAware ADS-B
Tue 07:55:57 AM 53.5838 -1.8489 334° Northwest 467 537 32,000  Level FlightAware ADS-B (EGXU / HRT)
Tue 07:56:28 AM 53.6441 -1.8982 334° Northwest 465 535 32,000  Level FlightAware ADS-B (EGXU / HRT)
Tue 07:56:58 AM 53.7018 -1.9456 334° Northwest 465 535 32,000  Level FlightAware ADS-B (EGXU / HRT)
Tue 07:57:30 AM 53.7622 -1.9948 334° Northwest 463 533 32,000  Level FlightAware ADS-B (EGNT / NCL)
Tue 07:57:49 AM 53.7990 -2.0248 335° Northwest 464 534 32,000  Level FlightAware ADS-B (EGNT / NCL)
Tue 07:58:26 AM 53.8662 -2.0793 335° Northwest 465 535 32,000  Level FlightAware ADS-B (EGCC / MAN)
Tue 07:58:56 AM 53.9299 -2.1309 335° Northwest 464 534 32,000  Level FlightAware ADS-B
Tue 07:59:26 AM 53.9868 -2.1763 335° Northwest 465 535 32,000  Level FlightAware ADS-B (EGNT / NCL)
Tue 07:59:59 AM 54.0515 -2.2284 334° Northwest 467 537 32,000  Level FlightAware ADS-B (EGCC / MAN)
Tue 08:00:05 AM 54.0576 -2.2347 334° Northwest 467 537 32,000  Level FlightAware ADS-B (EGNT / NCL)
Tue 08:00:35 AM 54.1213 -2.2856 334° Northwest 467 537 32,000  Level FlightAware ADS-B
Tue 08:01:06 AM 54.1811 -2.3349 334° Northwest 465 535 32,000  Level FlightAware ADS-B
Tue 08:01:39 AM 54.2376 -2.3811 334° Northwest 465 535 32,000  Level FlightAware ADS-B (EGNT / NCL)
Tue 08:02:00 AM 54.2837 -2.4199 334° Northwest 466 536 32,000  Level FlightAware ADS-B (EGNT / NCL)
Tue 08:02:31 AM 54.3419 -2.4693 333° Northwest 465 535 32,000  Level FlightAware ADS-B (EGNT / NCL)
Tue 08:03:01 AM 54.4034 -2.5239 333° Northwest 463 533 32,000  Level FlightAware ADS-B (EGPH / EDI)
Tue 08:03:32 AM 54.4459 -2.5603 333° Northwest 463 533 32,000  Level FlightAware ADS-B (EGNT / NCL)
Tue 08:04:09 AM 54.5259 -2.6295 333° Northwest 463 533 32,000  Level FlightAware ADS-B (LFPO / ORY)
Tue 08:04:41 AM 54.5942 -2.6889 333° Northwest 460 529 32,000  Level FlightAware ADS-B (EGXU / HRT)
Tue 08:05:12 AM 54.6518 -2.7383 333° Northwest 457 526 32,000  Level FlightAware ADS-B (EGPH / EDI)
Tue 08:05:52 AM 54.7263 -2.8039 333° Northwest 456 525 32,000  Level FlightAware ADS-B (EGPH / EDI)
Tue 08:06:25 AM 54.7849 -2.8552 333° Northwest 457 526 32,000  Level FlightAware ADS-B (EGXU / HRT)
Tue 08:06:59 AM 54.8379 -2.9014 333° Northwest 456 525 32,000  Level FlightAware ADS-B (EGNT / NCL)
Tue 08:07:32 AM 54.9155 -2.9694 333° Northwest 454 522 32,000  Level FlightAware ADS-B
Tue 08:08:02 AM 54.9730 -3.0208 333° Northwest 454 522 32,000  Level FlightAware ADS-B
Tue 08:08:34 AM 55.0274 -3.0690 333° Northwest 455 524 32,000  Level FlightAware ADS-B
Tue 08:09:04 AM 55.0867 -3.1224 333° Northwest 456 525 32,000  Level FlightAware ADS-B (EGPH / EDI)
Tue 08:09:34 AM 55.1430 -3.1723 333° Northwest 454 522 32,000  Level FlightAware ADS-B
Tue 08:10:06 AM 55.2049 -3.2275 333° Northwest 452 520 32,000  Level FlightAware ADS-B
Tue 08:10:37 AM 55.2621 -3.2793 333° Northwest 451 519 32,000  Level FlightAware ADS-B (EGPH / EDI)
Tue 08:11:10 AM 55.3238 -3.3347 333° Northwest 451 519 32,000  Level FlightAware ADS-B
Tue 08:11:41 AM 55.3797 -3.3851 333° Northwest 452 520 32,000  Level FlightAware ADS-B
Tue 08:12:13 AM 55.4388 -3.4390 333° Northwest 452 520 32,000  Level FlightAware ADS-B (EGPH / EDI)
Tue 08:12:46 AM 55.5009 -3.4962 333° Northwest 450 518 32,000  Level FlightAware ADS-B
Tue 08:13:17 AM 55.5571 -3.5468 333° Northwest 450 518 32,000  Level FlightAware ADS-B
Tue 08:13:51 AM 55.6138 -3.5993 333° Northwest 449 517 32,000  Level FlightAware ADS-B (LFPO / ORY)
Tue 08:14:02 AM 55.6410 -3.6246 333° Northwest 448 516 32,000  Level FlightAware ADS-B
Tue 08:14:35 AM 55.7002 -3.6788 333° Northwest 446 513 32,000  Level FlightAware ADS-B (EGPH / EDI)
Tue 08:15:07 AM 55.7605 -3.7346 332° Northwest 446 513 32,000  Level FlightAware ADS-B
Tue 08:15:38 AM 55.8164 -3.7870 332° Northwest 444 511 32,000  Level FlightAware ADS-B
Tue 08:16:12 AM 55.8767 -3.8430 332° Northwest 444 511 32,000  Level FlightAware ADS-B
Tue 08:16:53 AM 55.9492 -3.9110 332° Northwest 445 512 32,000  Level FlightAware ADS-B
Tue 08:17:26 AM 56.0122 -3.9707 332° Northwest 445 512 32,000  Level FlightAware ADS-B
Tue 08:17:57 AM 56.0668 -4.0222 332° Northwest 443 510 32,000  Level FlightAware ADS-B
Tue 08:18:30 AM 56.1278 -4.0788 332° Northwest 438 504 32,000  Level FlightAware ADS-B
Tue 08:19:02 AM 56.1814 -4.1305 332° Northwest 446 513 32,000 88 Level FlightAware ADS-B (LFPO / ORY)
Tue 08:19:38 AM 56.2525 -4.1982 332° Northwest 448 516 32,100 273 Climbing FlightAware ADS-B
Tue 08:19:46 AM 56.2675 -4.2123 331° Northwest 441 507 32,200 1,231 Climbing FlightAware ADS-B
Tue 08:20:17 AM 56.3196 -4.2629 332° Northwest 448 516 32,900 787 Climbing FlightAware ADS-B
Tue 08:20:47 AM 56.3777 -4.3172 332° Northwest 447 514 33,000 111 Climbing FlightAware ADS-B (EGPH / EDI)
Tue 08:21:11 AM 56.4224 -4.3609 331° Northwest 439 505 33,000  Level FlightAware ADS-B
Tue 08:21:19 AM 56.4360 -4.3749 331° Northwest 439 505 33,000  Level FlightAware ADS-B (EGPD / ABZ)
Tue 08:21:28 AM 56.4519 -4.3889 331° Northwest 439 505 33,000  Level FlightAware ADS-B
Tue 08:21:58 AM 56.5059 -4.4416 332° Northwest 447 514 33,000 554 Level FlightAware ADS-B
Tue 08:22:33 AM 56.5713 -4.5056 332° Northwest 447 514 33,600 1,116 Climbing FlightAware ADS-B (EGPH / EDI)
Tue 08:22:41 AM 56.5847 -4.5180 331° Northwest 440 506 33,800 774 Climbing FlightAware ADS-B (EGPD / ABZ)
Tue 08:23:04 AM 56.6257 -4.5588 332° Northwest 449 517 34,000 200 Climbing FlightAware ADS-B
Tue 08:23:41 AM 56.6950 -4.6272 332° Northwest 456 525 34,000  Level FlightAware ADS-B
Tue 08:24:14 AM 56.7546 -4.6853 332° Northwest 456 525 34,000  Level FlightAware ADS-B (EGPH / EDI)
Tue 08:24:47 AM 56.8171 -4.7470 332° Northwest 456 525 34,000  Level FlightAware UK
Tue 08:24:56 AM 56.8329 -4.7620 332° Northwest 455 524 34,000  Level FlightAware ADS-B
Tue 08:25:26 AM 56.8882 -4.8170 332° Northwest 454 522 34,000  Level FlightAware ADS-B
Tue 08:26:06 AM 56.9615 -4.8905 331° Northwest 455 524 34,000  Level FlightAware ADS-B
Tue 08:26:41 AM 57.0277 -4.9567 331° Northwest 453 521 34,000  Level FlightAware ADS-B
Tue 08:27:21 AM 57.1004 -5.0286 331° Northwest 452 520 34,000  Level FlightAware ADS-B (EGPH / EDI)
Tue 08:27:55 AM 57.1622 -5.0912 331° Northwest 452 520 34,000  Level FlightAware ADS-B
Tue 08:28:27 AM 57.2210 -5.1506 331° Northwest 452 520 34,000  Level FlightAware ADS-B (LFPO / ORY)
Tue 08:29:04 AM 57.2906 -5.2221 331° Northwest 450 518 34,000  Level FlightAware UK
Tue 08:29:13 AM 57.3061 -5.2375 331° Northwest 448 516 34,000  Level FlightAware ADS-B (EGPH / EDI)
Tue 08:29:53 AM 57.3780 -5.3114 331° Northwest 446 513 34,000  Level FlightAware ADS-B (EGPH / EDI)
Tue 08:30:34 AM 57.4530 -5.3881 331° Northwest 446 513 34,000  Level FlightAware UK
Tue 08:30:34 AM 57.4524 -5.3872 331° Northwest 446 513 34,000  Level FlightAware ADS-B (EGPH / EDI)
Tue 08:31:05 AM 57.4913 -5.4262 331° Northwest 446 513 34,000  Level FlightAware ADS-B (EGPH / EDI)
Tue 08:31:58 AM 57.6018 -5.5416 331° Northwest 445 512 34,000  Level FlightAware ADS-B (EGPH / EDI)
Tue 08:32:38 AM 57.6755 -5.6184 331° Northwest 445 512 34,000  Level FlightAware ADS-B (EGPH / EDI)
Tue 08:33:10 AM 57.7324 -5.6783 331° Northwest 446 513 34,000  Level FlightAware ADS-B
Tue 08:33:40 AM 57.7874 -5.7358 331° Northwest 446 513 34,000  Level FlightAware UK
Tue 08:33:45 AM 57.7945 -5.7427 323° Northwest 443 510 34,000  Level FlightAware ADS-B (EGPH / EDI)
Tue 08:34:26 AM 57.8533 -5.8429 314° West 443 510 34,000  Level FlightAware ADS-B
Tue 08:34:28 AM 57.8600 -5.8586 323° Northwest 444 511 34,000  Level FlightAware UK
Tue 08:34:32 AM 57.8616 -5.8596 314° West 443 510 34,000  Level FlightAware ADS-B (EGPH / EDI)
Tue 08:35:13 AM 57.9132 -5.9563 317° Northwest 442 509 34,000  Level FlightAware ADS-B
Tue 08:35:49 AM 57.9794 -6.0703 318° Northwest 440 506 34,000  Level FlightAware ADS-B
Tue 08:36:25 AM 58.0332 -6.1595 318° Northwest 438 504 34,000  Level FlightAware ADS-B (EGPH / EDI)
Tue 08:37:02 AM 58.0898 -6.2563 318° Northwest 436 502 34,000  Level FlightAware ADS-B (EGPH / EDI)
Tue 08:37:38 AM 58.1442 -6.3482 318° Northwest 436 502 34,000  Level FlightAware ADS-B
Tue 08:38:17 AM 58.2000 -6.4510 316° Northwest 436 502 34,000  Level FlightAware ADS-B
Tue 08:38:58 AM 58.2597 -6.5612 316° Northwest 438 504 34,000  Level FlightAware UK
Tue 08:39:34 AM 58.3119 -6.6571 316° Northwest 436 502 34,000  Level FlightAware UK
Tue 08:40:10 AM 58.3639 -6.7527 316° Northwest 438 504 34,000  Level FlightAware UK
Tue 08:40:40 AM 58.4074 -6.8329 316° Northwest 438 504 34,000  Level FlightAware UK
Tue 08:41:16 AM 58.4594 -6.9294 316° Northwest 436 502 34,000  Level FlightAware UK
Tue 08:41:46 AM 58.5025 -7.0098 316° Northwest 434 499 34,000  Level FlightAware UK
Tue 08:42:16 AM 58.5454 -7.0900 316° Northwest 432 497 34,000  Level FlightAware UK
Tue 08:42:46 AM 58.5880 -7.1698 316° Northwest 430 495 34,000  Level FlightAware UK
Tue 08:43:16 AM 58.6303 -7.2495 316° Northwest 428 493 34,000  Level FlightAware UK
Tue 08:43:46 AM 58.6725 -7.3291 316° Northwest 428 493 34,000  Level FlightAware UK
Tue 08:44:16 AM 58.7145 -7.4089 315° West 428 493 34,000  Level FlightAware UK
Tue 08:44:46 AM 58.7563 -7.4890 315° West 426 490 34,000  Level FlightAware UK
Tue 08:45:16 AM 58.7982 -7.5690 315° West 428 493 34,000  Level FlightAware UK
Tue 08:45:46 AM 58.8400 -7.6494 315° West 428 493 34,000  Level FlightAware UK
Tue 08:46:16 AM 58.8820 -7.7299 315° West 428 493 34,000  Level FlightAware UK
Tue 08:46:52 AM 58.9321 -7.8266 315° West 430 495 34,000  Level FlightAware UK
Tue 08:47:22 AM 58.9739 -7.9082 315° West 430 495 34,000  Level FlightAware UK
Tue 08:47:52 AM 59.0159 -7.9899 315° West 432 497 34,000  Level FlightAware UK
Tue 08:48:22 AM 59.0580 -8.0723 315° West 432 497 34,000  Level FlightAware UK
Tue 08:48:52 AM 59.1000 -8.1549 315° West 432 497 34,000  Level FlightAware UK
Tue 08:49:22 AM 59.1421 -8.2376 315° West 430 495 34,000  Level FlightAware UK
Tue 08:49:52 AM 59.1839 -8.3203 315° West 432 497 34,000  Level FlightAware UK
Tue 08:50:22 AM 59.2257 -8.4032 315° West 432 497 34,000  Level FlightAware UK
Tue 08:50:52 AM 59.2674 -8.4865 314° West 432 497 34,000  Level FlightAware UK
Tue 08:51:22 AM 59.3092 -8.5701 314° West 434 499 34,000  Level FlightAware UK
Tue 08:51:52 AM 59.3511 -8.6539 314° West 434 499 34,000  Level FlightAware UK
Tue 08:52:22 AM 59.3932 -8.7381 315° West 436 502 34,000  Level FlightAware UK
Tue 08:52:52 AM 59.4354 -8.8232 314° West 438 504 34,000  Level FlightAware UK
Tue 08:53:22 AM 59.4775 -8.9090 314° West 438 504 34,000  Level FlightAware UK
Tue 08:53:52 AM 59.5195 -8.9957 314° West 440 506 34,000 10 Level FlightAware UK
Tue 08:55:00 AM 59.6078 -9.2148 309° West  Level Estimated
Tue 09:02:00 AM 60.1450 -10.5935 308° West  Level Estimated
Tue 09:03:00 AM 60.2205 -10.7941 307° West  Level Estimated
Tue 09:04:00 AM 60.2957 -10.9957 307° West  Level Estimated
Tue 09:05:00 AM 60.3707 -11.1981 307° West  Level Estimated
Tue 09:06:00 AM 60.4453 -11.4015 307° West  Level Estimated
Tue 09:07:00 AM 60.5196 -11.6059 307° West  Level Estimated
Tue 09:08:00 AM 60.5936 -11.8111 306° West  Level Estimated
Tue 09:09:00 AM 60.6673 -12.0173 306° West  Level Estimated
Tue 09:10:00 AM 60.7407 -12.2245 306° West  Level Estimated
Tue 09:11:00 AM 60.8137 -12.4326 306° West  Level Estimated
Tue 09:12:00 AM 60.8864 -12.6417 306° West  Level Estimated
Tue 09:13:00 AM 60.9588 -12.8517 305° West  Level Estimated
Tue 09:14:00 AM 61.0309 -13.0626 305° West  Level Estimated
Tue 09:15:00 AM 61.1026 -13.2746 305° West  Level Estimated
Tue 09:16:00 AM 61.1740 -13.4874 305° West  Level Estimated
Tue 09:17:00 AM 61.2451 -13.7013 305° West  Level Estimated
Tue 09:18:00 AM 61.3158 -13.9161 305° West  Level Estimated
Tue 09:19:00 AM 61.3862 -14.1319 304° West  Level Estimated
Tue 09:20:00 AM 61.4563 -14.3486 304° West  Level Estimated
Tue 09:21:00 AM 61.5260 -14.5663 304° West  Level Estimated
Tue 09:22:00 AM 61.5953 -14.7851 304° West  Level Estimated
Tue 09:23:00 AM 61.6643 -15.0047 304° West  Level Estimated
Tue 09:24:00 AM 61.7329 -15.2254 303° West  Level Estimated
Tue 09:25:00 AM 61.8012 -15.4471 303° West  Level Estimated
Tue 09:26:00 AM 61.8692 -15.6697 303° West  Level Estimated
Tue 09:27:00 AM 61.9367 -15.8933 303° West  Level Estimated
Tue 09:28:00 AM 62.0039 -16.1179 303° West  Level Estimated
Tue 09:29:00 AM 62.0708 -16.3435 302° West  Level Estimated
Tue 09:30:00 AM 62.1373 -16.5701 302° West  Level Estimated
Tue 09:31:00 AM 62.2034 -16.7977 302° West  Level Estimated
Tue 09:32:00 AM 62.2691 -17.0263 302° West  Level Estimated
Tue 09:33:00 AM 62.3344 -17.2558 302° West  Level Estimated
Tue 09:34:00 AM 62.3994 -17.4864 301° West  Level Estimated
Tue 09:35:00 AM 62.4640 -17.7180 301° West  Level Estimated
Tue 09:36:00 AM 62.5282 -17.9506 301° West  Level Estimated
Tue 09:37:00 AM 62.5920 -18.1842 301° West  Level Estimated
Tue 09:38:00 AM 62.6554 -18.4187 301° West  Level Estimated
Tue 09:39:00 AM 62.7184 -18.6543 300° West  Level Estimated
Tue 09:40:00 AM 62.7811 -18.8909 300° West  Level Estimated
Tue 09:41:00 AM 62.8433 -19.1285 300° West  Level Estimated
Tue 09:42:00 AM 62.9051 -19.3671 300° West  Level Estimated
Tue 09:43:00 AM 62.9666 -19.6067 300° West  Level Estimated
Tue 09:44:00 AM 63.0276 -19.8473 299° West  Level Estimated
Tue 09:45:00 AM 63.0882 -20.0889 299° West  Level Estimated
Tue 09:46:00 AM 63.1484 -20.3315 299° West  Level Estimated
Tue 09:47:00 AM 63.2082 -20.5751 299° West  Level Estimated
Tue 09:48:00 AM 63.2675 -20.8198 298° West  Level Estimated
Tue 09:49:00 AM 63.3265 -21.0654 298° West  Level Estimated
Tue 09:50:00 AM 63.3850 -21.3120 298° West  Level Estimated
Tue 09:51:00 AM 63.4431 -21.5597 298° West  Level Estimated
Tue 09:52:00 AM 63.5007 -21.8083 298° West  Level Estimated
Tue 09:53:00 AM 63.5579 -22.0580 297° West  Level Estimated
Tue 09:54:00 AM 63.6147 -22.3086 297° West  Level Estimated
Tue 09:55:00 AM 63.6711 -22.5603 297° West  Level Estimated
Tue 09:56:00 AM 63.7270 -22.8129 297° West  Level Estimated
Tue 09:57:00 AM 63.7825 -23.0666 296° West  Level Estimated
Tue 09:58:00 AM 63.8375 -23.3212 296° West  Level Estimated
Tue 09:59:00 AM 63.8921 -23.5768 296° West  Level Estimated
Tue 10:00:00 AM 63.9462 -23.8335 296° West  Level Estimated
Tue 10:01:00 AM 63.9998 -24.0911 296° West  Level Estimated
Tue 10:02:00 AM 64.0530 -24.3497 295° West  Level Estimated
Tue 10:03:00 AM 64.1058 -24.6093 295° West  Level Estimated
Tue 10:04:00 AM 64.1581 -24.8698 295° West  Level Estimated
Tue 10:05:00 AM 64.2099 -25.1314 295° West  Level Estimated
Tue 10:06:00 AM 64.2612 -25.3939 294° West  Level Estimated
Tue 10:07:00 AM 64.3121 -25.6574 294° West  Level Estimated
Tue 10:08:00 AM 64.3625 -25.9219 294° West  Level Estimated
Tue 10:09:00 AM 64.4124 -26.1873 294° West  Level Estimated
Tue 10:10:00 AM 64.4618 -26.4537 293° West  Level Estimated
Tue 10:11:00 AM 64.5108 -26.7210 293° West  Level Estimated
Tue 10:12:00 AM 64.5593 -26.9893 293° West  Level Estimated
Tue 10:13:00 AM 64.6072 -27.2586 293° West  Level Estimated
Tue 10:14:00 AM 64.6547 -27.5288 292° West  Level Estimated
Tue 10:15:00 AM 64.7017 -27.7999 292° West  Level Estimated
Tue 10:16:00 AM 64.7482 -28.0720 292° West  Level Estimated
Tue 10:17:00 AM 64.7942 -28.3451 292° West  Level Estimated
Tue 10:18:00 AM 64.8397 -28.6190 291° West  Level Estimated
Tue 10:19:00 AM 64.8847 -28.8939 291° West  Level Estimated
Tue 10:20:00 AM 64.9292 -29.1697 291° West  Level Estimated
Tue 10:21:00 AM 64.9731 -29.4464 291° West  Level Estimated
Tue 10:22:00 AM 65.0166 -29.7240 290° West  Level Estimated
Tue 10:23:00 AM 65.0595 -30.0025 290° West  Level Estimated
Tue 10:24:00 AM 65.1019 -30.2819 290° West  Level Estimated
Tue 10:25:00 AM 65.1438 -30.5621 290° West  Level Estimated
Tue 10:26:00 AM 65.1852 -30.8433 289° West  Level Estimated
Tue 10:27:00 AM 65.2260 -31.1254 289° West  Level Estimated
Tue 10:28:00 AM 65.2664 -31.4083 289° West  Level Estimated
Tue 10:29:00 AM 65.3061 -31.6920 289° West  Level Estimated
Tue 10:30:00 AM 65.3454 -31.9766 288° West  Level Estimated
Tue 10:31:00 AM 65.3841 -32.2621 288° West  Level Estimated
Tue 10:32:00 AM 65.4223 -32.5484 288° West  Level Estimated
Tue 10:33:00 AM 65.4599 -32.8355 288° West  Level Estimated
Tue 10:34:00 AM 65.4970 -33.1235 287° West  Level Estimated
Tue 10:35:00 AM 65.5335 -33.4123 287° West  Level Estimated
Tue 10:36:00 AM 65.5695 -33.7018 287° West  Level Estimated
Tue 10:37:00 AM 65.6049 -33.9922 287° West  Level Estimated
Tue 10:38:00 AM 65.6398 -34.2833 286° West  Level Estimated
Tue 10:39:00 AM 65.6741 -34.5752 286° West  Level Estimated
Tue 10:40:00 AM 65.7078 -34.8680 286° West  Level Estimated
Tue 10:41:00 AM 65.7410 -35.1614 286° West  Level Estimated
Tue 10:42:00 AM 65.7737 -35.4556 285° West  Level Estimated
Tue 10:43:00 AM 65.8057 -35.7505 285° West  Level Estimated
Tue 10:44:00 AM 65.8372 -36.0462 285° West  Level Estimated
Tue 10:45:00 AM 65.8682 -36.3426 284° West  Level Estimated
Tue 10:46:00 AM 65.8985 -36.6397 284° West  Level Estimated
Tue 10:47:00 AM 65.9283 -36.9375 284° West  Level Estimated
Tue 10:48:00 AM 65.9575 -37.2360 284° West  Level Estimated
Tue 10:49:00 AM 65.9861 -37.5351 283° West  Level Estimated
Tue 10:50:00 AM 66.0141 -37.8350 283° West  Level Estimated
Tue 10:51:00 AM 66.0416 -38.1354 283° West  Level Estimated
Tue 10:52:00 AM 66.0684 -38.4366 283° West  Level Estimated
Tue 10:53:00 AM 66.0947 -38.7383 282° West  Level Estimated
Tue 10:54:00 AM 66.1204 -39.0407 282° West  Level Estimated
Tue 10:55:00 AM 66.1455 -39.3437 282° West  Level Estimated
Tue 10:56:00 AM 66.1700 -39.6472 281° West  Level Estimated
Tue 10:57:00 AM 66.1939 -39.9514 281° West  Level Estimated
Tue 10:58:00 AM 66.2172 -40.2561 281° West  Level Estimated
Tue 10:59:00 AM 66.2399 -40.5614 281° West  Level Estimated
Tue 11:00:00 AM 66.2620 -40.8672 280° West  Level Estimated
Tue 11:01:00 AM 66.2835 -41.1735 280° West  Level Estimated
Tue 11:02:00 AM 66.3044 -41.4804 280° West  Level Estimated
Tue 11:03:00 AM 66.3247 -41.7878 279° West  Level Estimated
Tue 11:04:00 AM 66.3444 -42.0956 279° West  Level Estimated
Tue 11:05:00 AM 66.3635 -42.4039 279° West  Level Estimated
Tue 11:06:00 AM 66.3820 -42.7127 279° West  Level Estimated
Tue 11:07:00 AM 66.3998 -43.0220 278° West  Level Estimated
Tue 11:08:00 AM 66.4171 -43.3316 278° West  Level Estimated
Tue 11:09:00 AM 66.4337 -43.6417 278° West  Level Estimated
Tue 11:10:00 AM 66.4497 -43.9522 277° West  Level Estimated
Tue 11:11:00 AM 66.4651 -44.2631 277° West  Level Estimated
Tue 11:12:00 AM 66.4799 -44.5744 277° West  Level Estimated
Tue 11:13:00 AM 66.4940 -44.8860 277° West  Level Estimated
Tue 11:14:00 AM 66.5076 -45.1980 276° West  Level Estimated
Tue 11:15:00 AM 66.5205 -45.5103 276° West  Level Estimated
Tue 11:16:00 AM 66.5328 -45.8229 276° West  Level Estimated
Tue 11:17:00 AM 66.5445 -46.1358 275° West  Level Estimated
Tue 11:18:00 AM 66.5555 -46.4491 275° West  Level Estimated
Tue 11:19:00 AM 66.5659 -46.7625 275° West  Level Estimated
Tue 11:20:00 AM 66.5757 -47.0763 275° West  Level Estimated
Tue 11:21:00 AM 66.5849 -47.3902 274° West  Level Estimated
Tue 11:22:00 AM 66.5934 -47.7044 274° West  Level Estimated
Tue 11:23:00 AM 66.6013 -48.0188 274° West  Level Estimated
Tue 11:24:00 AM 66.6086 -48.3335 273° West  Level Estimated
Tue 11:25:00 AM 66.6153 -48.6482 273° West  Level Estimated
Tue 11:26:00 AM 66.6213 -48.9632 273° West  Level Estimated
Tue 11:27:00 AM 66.6267 -49.2783 273° West  Level Estimated
Tue 11:28:00 AM 66.6314 -49.5935 272° West  Level Estimated
Tue 11:29:00 AM 66.6356 -49.9088 272° West  Level Estimated
Tue 11:30:00 AM 66.6391 -50.2242 272° West  Level Estimated
Tue 11:31:00 AM 66.6419 -50.5397 271° West  Level Estimated
Tue 11:32:00 AM 66.6442 -50.8553 271° West  Level Estimated
Tue 11:33:00 AM 66.6458 -51.1709 271° West  Level Estimated
Tue 11:34:00 AM 66.6467 -51.4865 271° West  Level Estimated
Tue 11:35:00 AM 66.6471 -51.8022 270° West  Level Estimated
Tue 11:36:00 AM 66.6468 -52.1179 270° West  Level Estimated
Tue 11:37:00 AM 66.6458 -52.4335 270° West  Level Estimated
Tue 11:38:00 AM 66.6443 -52.7492 269° West  Level Estimated
Tue 11:39:00 AM 66.6421 -53.0647 269° West  Level Estimated
Tue 11:40:00 AM 66.6392 -53.3802 269° West  Level Estimated
Tue 11:41:00 AM 66.6358 -53.6957 269° West  Level Estimated
Tue 11:42:00 AM 66.6317 -54.0110 268° West  Level Estimated
Tue 11:43:00 AM 66.6269 -54.3262 268° West  Level Estimated
Tue 11:44:00 AM 66.6216 -54.6413 268° West  Level Estimated
Tue 11:45:00 AM 66.6156 -54.9562 267° West  Level Estimated
Tue 11:46:00 AM 66.6090 -55.2710 267° West  Level Estimated
Tue 11:47:00 AM 66.6017 -55.5857 267° West  Level Estimated
Tue 11:48:00 AM 66.5938 -55.9001 267° West  Level Estimated
Tue 11:49:00 AM 66.5853 -56.2143 266° West  Level Estimated
Tue 11:50:00 AM 66.5762 -56.5283 266° West  Level Estimated
Tue 11:51:00 AM 66.5664 -56.8420 266° West  Level Estimated
Tue 11:52:00 AM 66.5560 -57.1555 265° West  Level Estimated
Tue 11:53:00 AM 66.5450 -57.4687 265° West  Level Estimated
Tue 11:54:00 AM 66.5334 -57.7817 265° West  Level Estimated
Tue 11:55:00 AM 66.5211 -58.0943 265° West  Level Estimated
Tue 11:56:00 AM 66.5078 -58.4170 264° West  Level Estimated
Tue 11:57:00 AM 66.4938 -58.7394 264° West  Level Estimated
Tue 11:58:00 AM 66.4791 -59.0615 264° West  Level Estimated
Tue 11:59:00 AM 66.4638 -59.3831 263° West  Level Estimated
Tue 12:00:00 PM 66.4479 -59.7043 263° West  Level Estimated
Tue 12:01:00 PM 66.4312 -60.0251 263° West  Level Estimated
Tue 12:02:00 PM 66.4276 -60.3483 269° West  Level FlightAware Approximate
Tue 12:03:00 PM 66.4232 -60.6713 268° West  Level FlightAware Approximate
Tue 12:04:00 PM 66.4182 -60.9942 268° West  Level FlightAware Approximate
Tue 12:05:00 PM 66.4126 -61.3170 268° West  Level FlightAware Approximate
Tue 12:06:00 PM 66.4062 -61.6397 267° West  Level FlightAware Approximate
Tue 12:07:00 PM 66.3992 -61.9621 267° West  Level FlightAware Approximate
Tue 12:08:00 PM 66.3916 -62.2844 267° West  Level FlightAware Approximate
Tue 12:09:00 PM 66.3833 -62.6065 266° West  Level FlightAware Approximate
Tue 12:10:00 PM 66.3743 -62.9283 266° West  Level FlightAware Approximate
Tue 12:11:00 PM 66.3611 -63.2613 260° West  Level FlightAware Approximate
Tue 12:12:00 PM 66.3380 -63.5783 260° West  Level FlightAware Approximate
Tue 12:13:00 PM 66.3143 -63.8948 260° West  Level FlightAware Approximate
Tue 12:14:00 PM 66.2899 -64.2107 259° West  Level FlightAware Approximate
Tue 12:15:00 PM 66.2649 -64.5259 259° West  Level FlightAware Approximate
Tue 12:16:00 PM 66.2393 -64.8406 259° West  Level FlightAware Approximate
Tue 12:17:00 PM 66.2130 -65.1545 258° West  Level FlightAware Approximate
Tue 12:18:00 PM 66.1861 -65.4679 258° West  Level FlightAware Approximate
Tue 12:19:00 PM 66.1585 -65.7805 258° West  Level FlightAware Approximate
Tue 12:20:00 PM 66.1303 -66.0925 258° West  Level FlightAware Approximate
Tue 12:21:00 PM 66.1015 -66.4037 257° West  Level FlightAware Approximate
Tue 12:21:59 PM 66.6000 -68.3000 256° West 450 518 36,000  Level Edmonton Center
Tue 12:22:00 PM 66.0721 -66.7142 257° West  Level FlightAware Approximate
Tue 12:22:59 PM 66.5833 -68.6333 263° West 470 541 36,000  Level Edmonton Center
Tue 12:23:00 PM 66.0420 -67.0240 257° West  Level FlightAware Approximate
Tue 12:23:59 PM 66.5333 -68.9333 247° West 470 541 36,000  Level Edmonton Center
Tue 12:24:00 PM 66.0114 -67.3331 256° West  Level FlightAware Approximate
Tue 12:24:59 PM 66.5167 -69.2667 263° West 470 541 36,000  Level Edmonton Center
Tue 12:25:00 PM 65.9801 -67.6415 256° West  Level FlightAware Approximate
Tue 12:25:59 PM 66.5000 -69.5833 263° West 470 541 36,000  Level Edmonton Center
Tue 12:26:00 PM 65.9482 -67.9490 256° West  Level FlightAware Approximate
Tue 12:26:59 PM 66.4667 -69.8833 255° West 480 552 36,000  Level Edmonton Center
Tue 12:27:00 PM 65.9157 -68.2558 256° West  Level FlightAware Approximate
Tue 12:27:59 PM 66.4167 -70.2167 250° West 480 552 36,000  Level Edmonton Center
Tue 12:28:59 PM 66.3667 -70.5333 249° West 450 518 36,000  Level Edmonton Center
Tue 12:29:59 PM 66.3167 -70.8000 245° Southwest 480 552 36,000  Level Edmonton Center
Tue 12:30:59 PM 66.2667 -71.1167 249° West 470 541 36,000  Level Edmonton Center
Tue 12:31:59 PM 66.2167 -71.4167 248° West 470 541 36,000  Level Edmonton Center
Tue 12:32:59 PM 66.1667 -71.6833 245° Southwest 470 541 36,000  Level Edmonton Center
Tue 12:33:59 PM 66.1167 -72.0000 249° West 480 552 36,000  Level Edmonton Center
Tue 12:34:59 PM 66.0500 -72.3167 243° Southwest 480 552 36,000  Level Edmonton Center
Tue 12:35:59 PM 66.0167 -72.6167 255° West 480 552 36,000  Level Edmonton Center
Tue 12:36:59 PM 65.9500 -72.9333 243° Southwest 470 541 36,000  Level Edmonton Center
Tue 12:37:59 PM 65.8833 -73.1833 237° Southwest 480 552 36,000  Level Edmonton Center
Tue 12:38:59 PM 65.8500 -73.4833 255° West 480 552 36,000  Level Edmonton Center
Tue 12:39:59 PM 65.7833 -73.8000 243° Southwest 480 552 36,000  Level Edmonton Center
Tue 12:40:59 PM 65.7167 -74.0500 237° Southwest 480 552 36,000  Level Edmonton Center
Tue 12:41:59 PM 65.6667 -74.3500 248° West 480 552 36,000  Level Edmonton Center
Tue 12:42:59 PM 65.6000 -74.6500 242° Southwest 480 552 36,000  Level Edmonton Center
Tue 12:43:59 PM 65.5500 -74.9500 248° West 480 552 36,000  Level Edmonton Center
Tue 12:44:59 PM 65.4833 -75.2500 242° Southwest 480 552 36,000  Level Edmonton Center
Tue 12:45:59 PM 65.4333 -75.5000 244° Southwest 470 541 36,000 24 Level Edmonton Center
Tue 12:48:00 PM 65.3239 -76.0700 246° West  Level FlightAware Approximate
Tue 12:55:00 PM 64.9277 -78.0116 245° Southwest  Level FlightAware Approximate
Tue 12:56:00 PM 64.8691 -78.2842 243° Southwest  Level FlightAware Approximate
Tue 12:57:00 PM 64.8099 -78.5556 243° Southwest  Level FlightAware Approximate
Tue 12:58:00 PM 64.7503 -78.8259 243° Southwest  Level FlightAware Approximate
Tue 12:59:00 PM 64.6902 -79.0949 243° Southwest  Level FlightAware Approximate
Tue 01:00:00 PM 64.6296 -79.3627 242° Southwest  Level FlightAware Approximate
Tue 01:01:00 PM 64.5685 -79.6294 242° Southwest  Level FlightAware Approximate
Tue 01:02:00 PM 64.5070 -79.8948 242° Southwest  Level FlightAware Approximate
Tue 01:03:00 PM 64.4450 -80.1591 242° Southwest  Level FlightAware Approximate
Tue 01:04:00 PM 64.3824 -80.4221 241° Southwest  Level FlightAware Approximate
Tue 01:05:00 PM 64.3195 -80.6840 241° Southwest  Level FlightAware Approximate
Tue 01:06:00 PM 64.2560 -80.9446 241° Southwest  Level FlightAware Approximate
Tue 01:07:00 PM 64.1921 -81.2041 241° Southwest  Level FlightAware Approximate
Tue 01:08:00 PM 64.1278 -81.4623 240° Southwest  Level FlightAware Approximate
Tue 01:09:00 PM 64.0630 -81.7194 240° Southwest  Level FlightAware Approximate
Tue 01:10:00 PM 63.9977 -81.9753 240° Southwest  Level FlightAware Approximate
Tue 01:11:00 PM 63.9320 -82.2299 240° Southwest  Level FlightAware Approximate
Tue 01:12:00 PM 63.8658 -82.4834 239° Southwest  Level FlightAware Approximate
Tue 01:13:00 PM 63.7992 -82.7357 239° Southwest  Level FlightAware Approximate
Tue 01:14:00 PM 63.7322 -82.9868 239° Southwest  Level FlightAware Approximate
Tue 01:15:00 PM 63.6647 -83.2367 239° Southwest  Level FlightAware Approximate
Tue 01:16:00 PM 63.5968 -83.4854 239° Southwest  Level FlightAware Approximate
Tue 01:17:00 PM 63.5285 -83.7329 238° Southwest  Level FlightAware Approximate
Tue 01:18:00 PM 63.4597 -83.9792 238° Southwest  Level FlightAware Approximate
Tue 01:19:00 PM 63.3906 -84.2243 238° Southwest  Level FlightAware Approximate
Tue 01:20:00 PM 63.3210 -84.4683 238° Southwest  Level FlightAware Approximate
Tue 01:21:00 PM 63.2510 -84.7111 237° Southwest  Level FlightAware Approximate
Tue 01:22:00 PM 63.1805 -84.9527 237° Southwest  Level FlightAware Approximate
Tue 01:23:00 PM 63.1090 -85.1924 237° Southwest  Level FlightAware Approximate
Tue 01:24:00 PM 63.0370 -85.4306 236° Southwest  Level FlightAware Approximate
Tue 01:25:00 PM 62.9647 -85.6675 236° Southwest  Level FlightAware Approximate
Tue 01:26:00 PM 62.8919 -85.9033 236° Southwest  Level FlightAware Approximate
Tue 01:27:00 PM 62.8187 -86.1379 236° Southwest  Level FlightAware Approximate
Tue 01:28:00 PM 62.7451 -86.3714 236° Southwest  Level FlightAware Approximate
Tue 01:29:00 PM 62.6712 -86.6037 235° Southwest  Level FlightAware Approximate
Tue 01:30:00 PM 62.5969 -86.8348 235° Southwest  Level FlightAware Approximate
Tue 01:31:00 PM 62.5221 -87.0648 235° Southwest  Level FlightAware Approximate
Tue 01:32:00 PM 62.4471 -87.2936 235° Southwest  Level FlightAware Approximate
Tue 01:33:00 PM 62.3716 -87.5213 235° Southwest  Level FlightAware Approximate
Tue 01:34:00 PM 62.2958 -87.7479 234° Southwest  Level FlightAware Approximate
Tue 01:35:00 PM 62.2197 -87.9733 234° Southwest  Level FlightAware Approximate
Tue 01:36:00 PM 62.1431 -88.1976 234° Southwest  Level FlightAware Approximate
Tue 01:37:00 PM 62.0662 -88.4208 234° Southwest  Level FlightAware Approximate
Tue 01:38:00 PM 61.9890 -88.6428 234° Southwest  Level FlightAware Approximate
Tue 01:39:00 PM 61.9114 -88.8637 233° Southwest  Level FlightAware Approximate
Tue 01:40:00 PM 61.8334 -89.0835 233° Southwest  Level FlightAware Approximate
Tue 01:41:00 PM 61.7551 -89.3021 233° Southwest  Level FlightAware Approximate
Tue 01:42:00 PM 61.6765 -89.5197 233° Southwest  Level FlightAware Approximate
Tue 01:43:00 PM 61.5975 -89.7361 233° Southwest  Level FlightAware Approximate
Tue 01:44:00 PM 61.5181 -89.9514 232° Southwest  Level FlightAware Approximate
Tue 01:45:00 PM 61.4385 -90.1657 232° Southwest  Level FlightAware Approximate
Tue 01:46:00 PM 61.3585 -90.3788 232° Southwest  Level FlightAware Approximate
Tue 01:47:00 PM 61.2798 -90.5934 235° Southwest  Level FlightAware Approximate
Tue 01:48:00 PM 61.2051 -90.8137 235° Southwest  Level FlightAware Approximate
Tue 01:49:00 PM 61.1300 -91.0330 235° Southwest  Level FlightAware Approximate
Tue 01:50:00 PM 61.0546 -91.2512 235° Southwest  Level FlightAware Approximate
Tue 01:51:00 PM 60.9789 -91.4684 234° Southwest  Level FlightAware Approximate
Tue 01:52:00 PM 60.9028 -91.6846 234° Southwest  Level FlightAware Approximate
Tue 01:53:00 PM 60.8264 -91.8997 234° Southwest  Level FlightAware Approximate
Tue 01:54:00 PM 60.7496 -92.1138 234° Southwest  Level FlightAware Approximate
Tue 01:55:00 PM 60.6725 -92.3269 234° Southwest  Level FlightAware Approximate
Tue 01:56:00 PM 60.5950 -92.5389 233° Southwest  Level FlightAware Approximate
Tue 01:57:00 PM 60.5172 -92.7499 233° Southwest  Level FlightAware Approximate
Tue 01:58:00 PM 60.4391 -92.9600 233° Southwest  Level FlightAware Approximate
Tue 01:59:00 PM 60.3606 -93.1690 233° Southwest  Level FlightAware Approximate
Tue 02:00:00 PM 60.2819 -93.3770 233° Southwest  Level FlightAware Approximate
Tue 02:01:00 PM 60.2028 -93.5840 232° Southwest  Level FlightAware Approximate
Tue 02:02:00 PM 60.1233 -93.7900 232° Southwest  Level FlightAware Approximate
Tue 02:03:00 PM 60.0436 -93.9950 232° Southwest  Level FlightAware Approximate
Tue 02:04:00 PM 59.9635 -94.1990 232° Southwest  Level FlightAware Approximate
Tue 02:05:00 PM 59.8838 -94.4030 232° Southwest  Level FlightAware Approximate
Tue 02:06:00 PM 59.8038 -94.6061 232° Southwest  Level FlightAware Approximate
Tue 02:07:00 PM 59.7235 -94.8084 232° Southwest  Level FlightAware Approximate
Tue 02:07:02 PM 59.4667 -95.2833 230° Southwest 470 541 38,000  Level Edmonton Center
Tue 02:08:00 PM 59.6415 -95.0073 231° Southwest  Level Estimated
Tue 02:08:02 PM 59.3833 -95.4667 228° Southwest 470 541 38,000  Level Edmonton Center
Tue 02:09:00 PM 59.5592 -95.2052 231° Southwest  Level Estimated
Tue 02:09:02 PM 59.3000 -95.7000 235° Southwest 470 541 38,000  Level Edmonton Center
Tue 02:10:00 PM 59.4765 -95.4021 230° Southwest  Level Estimated
Tue 02:10:02 PM 59.2167 -95.8833 228° Southwest 470 541 38,000  Level Edmonton Center
Tue 02:11:00 PM 59.3936 -95.5981 230° Southwest  Level Estimated
Tue 02:11:02 PM 59.1333 -96.1000 233° Southwest 470 541 38,000  Level Edmonton Center
Tue 02:12:00 PM 59.3103 -95.7932 230° Southwest  Level Estimated
Tue 02:12:02 PM 59.0500 -96.3000 231° Southwest 470 541 38,000  Level Edmonton Center
Tue 02:13:02 PM 58.9667 -96.5167 233° Southwest 470 541 38,000  Level Edmonton Center
Tue 02:14:02 PM 58.8833 -96.7000 229° Southwest 480 552 38,000  Level Edmonton Center
Tue 02:15:02 PM 58.7833 -96.9167 228° Southwest 470 541 38,000  Level Edmonton Center
Tue 02:16:02 PM 58.7167 -97.1000 235° Southwest 480 552 38,000  Level Edmonton Center
Tue 02:17:02 PM 58.6167 -97.2833 224° Southwest 470 541 38,000  Level Edmonton Center
Tue 02:18:02 PM 58.5333 -97.5000 234° Southwest 470 541 38,000  Level Edmonton Center
Tue 02:19:02 PM 58.4500 -97.6833 229° Southwest 480 552 38,000  Level Edmonton Center
Tue 02:20:02 PM 58.3500 -97.9000 229° Southwest 470 541 38,000  Level Edmonton Center
Tue 02:21:02 PM 58.2833 -98.0833 235° Southwest 470 541 38,000  Level Edmonton Center
Tue 02:22:02 PM 58.1833 -98.2833 227° Southwest 470 541 38,000  Level Edmonton Center
Tue 02:23:02 PM 58.1000 -98.4667 229° Southwest 480 552 38,000  Level Edmonton Center
Tue 02:24:02 PM 58.0000 -98.6833 229° Southwest 470 541 38,000  Level Edmonton Center
Tue 02:25:02 PM 57.9333 -98.8500 233° Southwest 480 552 38,000  Level Edmonton Center
Tue 02:26:02 PM 57.8333 -99.0667 229° Southwest 480 552 38,000  Level Edmonton Center
Tue 02:27:02 PM 57.7333 -99.2333 222° Southwest 480 552 38,000  Level Edmonton Center
Tue 02:28:02 PM 57.6500 -99.4333 232° Southwest 480 552 38,000  Level Edmonton Center
Tue 02:29:02 PM 57.5667 -99.6167 230° Southwest 480 552 38,000  Level Edmonton Center
Tue 02:30:02 PM 57.4833 -99.8167 232° Southwest 480 552 38,000  Level Edmonton Center
Tue 02:31:02 PM 57.3833 -99.9833 222° Southwest 480 552 38,000  Level Edmonton Center
Tue 02:32:02 PM 57.2833 -100.1500 222° Southwest 480 552 38,000  Level Edmonton Center
Tue 02:33:02 PM 57.1833 -100.3500 227° Southwest 480 552 38,000  Level Edmonton Center
Tue 02:34:02 PM 57.1167 -100.5167 234° Southwest 490 564 38,000  Level Edmonton Center
Tue 02:35:02 PM 57.0167 -100.7167 227° Southwest 480 552 38,000  Level Edmonton Center
Tue 02:36:02 PM 56.9167 -100.8833 222° Southwest 480 552 38,000  Level Edmonton Center
Tue 02:37:02 PM 56.8333 -101.0833 233° Southwest 480 552 38,000  Level Edmonton Center
Tue 02:38:02 PM 56.7333 -101.2833 228° Southwest 480 552 38,000  Level Edmonton Center
Tue 02:39:02 PM 56.6500 -101.4667 230° Southwest 480 552 38,000  Level Edmonton Center
Tue 02:40:02 PM 56.5500 -101.6667 228° Southwest 480 552 38,000  Level Edmonton Center
Tue 02:41:02 PM 56.4667 -101.8333 228° Southwest 480 552 38,000  Level Edmonton Center
Tue 02:42:02 PM 56.3833 -102.0167 231° Southwest 480 552 38,000  Level Edmonton Center
Tue 02:43:02 PM 56.2833 -102.2167 228° Southwest 480 552 38,000  Level Edmonton Center
Tue 02:44:02 PM 56.2000 -102.4000 231° Southwest 480 552 38,000  Level Edmonton Center
Tue 02:45:02 PM 56.1000 -102.5667 223° Southwest 480 552 38,000  Level Edmonton Center
Tue 02:46:02 PM 56.0167 -102.7500 231° Southwest 480 552 38,000  Level Edmonton Center
Tue 02:47:02 PM 55.9167 -102.9333 226° Southwest 480 552 38,000  Level Edmonton Center
Tue 02:48:02 PM 55.8333 -103.0833 225° Southwest 480 552 38,000  Level Edmonton Center
Tue 02:49:02 PM 55.7333 -103.2833 228° Southwest 480 552 38,000  Level Edmonton Center
Tue 02:50:02 PM 55.6333 -103.4667 226° Southwest 480 552 38,000  Level Edmonton Center
Tue 02:51:02 PM 55.5500 -103.6167 226° Southwest 480 552 38,000  Level Edmonton Center
Tue 02:52:02 PM 55.4500 -103.8000 226° Southwest 480 552 38,000  Level Edmonton Center
Tue 02:53:02 PM 55.3667 -103.9500 226° Southwest 480 552 38,000  Level Edmonton Center
Tue 02:54:02 PM 55.2667 -104.1333 226° Southwest 470 541 38,000  Level Edmonton Center
Tue 02:55:02 PM 55.1667 -104.3167 226° Southwest 480 552 38,000  Level Edmonton Center
Tue 02:56:02 PM 55.0833 -104.4833 229° Southwest 480 552 38,000  Level Edmonton Center
Tue 02:57:02 PM 54.9833 -104.6333 221° Southwest 480 552 38,000  Level Edmonton Center
Tue 02:58:02 PM 54.9000 -104.8167 232° Southwest 480 552 38,000  Level Edmonton Center
Tue 02:59:02 PM 54.8000 -105.0000 227° Southwest 480 552 38,000  Level Edmonton Center
Tue 03:00:02 PM 54.7167 -105.1333 223° Southwest 480 552 38,000  Level Edmonton Center
Tue 03:01:02 PM 54.6167 -105.3167 227° Southwest 480 552 38,000  Level Edmonton Center
Tue 03:02:02 PM 54.5167 -105.4833 224° Southwest 480 552 38,000  Level Edmonton Center
Tue 03:03:02 PM 54.4333 -105.6667 232° Southwest 480 552 38,000  Level Edmonton Center
Tue 03:04:02 PM 54.3333 -105.8000 218° Southwest 480 552 38,000  Level Edmonton Center
Tue 03:05:02 PM 54.2333 -105.9833 227° Southwest 480 552 38,000  Level Edmonton Center
Tue 03:06:02 PM 54.1333 -106.1167 218° Southwest 480 552 38,000  Level Edmonton Center
Tue 03:07:02 PM 54.0500 -106.2833 230° Southwest 480 552 38,000  Level Edmonton Center
Tue 03:08:02 PM 53.9500 -106.4667 227° Southwest 480 552 38,000  Level Edmonton Center
Tue 03:09:02 PM 53.8667 -106.6333 230° Southwest 480 552 38,000  Level Edmonton Center
Tue 03:10:02 PM 53.7500 -106.7667 214° Southwest 480 552 38,000  Level Edmonton Center
Tue 03:11:02 PM 53.6500 -106.9333 225° Southwest 480 552 38,000  Level Edmonton Center
Tue 03:12:02 PM 53.5667 -107.1000 230° Southwest 480 552 38,000  Level Edmonton Center
Tue 03:13:02 PM 53.4667 -107.2667 225° Southwest 480 552 38,000  Level Edmonton Center
Tue 03:14:02 PM 53.3667 -107.4000 219° Southwest 480 552 38,000  Level Edmonton Center
Tue 03:15:02 PM 53.2667 -107.5667 225° Southwest 480 552 38,000  Level Edmonton Center
Tue 03:16:02 PM 53.1833 -107.7333 230° Southwest 480 552 38,000  Level Edmonton Center
Tue 03:17:02 PM 53.0667 -107.8833 218° Southwest 480 552 38,000  Level Edmonton Center
Tue 03:18:02 PM 52.9667 -108.0167 219° Southwest 480 552 38,000  Level Edmonton Center
Tue 03:19:02 PM 52.8667 -108.1833 225° Southwest 490 564 38,000  Level Edmonton Center
Tue 03:20:02 PM 52.7667 -108.3500 225° Southwest 490 564 38,000  Level Edmonton Center
Tue 03:21:02 PM 52.6667 -108.4833 219° Southwest 480 552 38,000  Level Edmonton Center
Tue 03:22:02 PM 52.5667 -108.6333 222° Southwest 480 552 38,000  Level Edmonton Center
Tue 03:23:02 PM 52.4667 -108.8000 225° Southwest 490 564 38,000  Level Edmonton Center
Tue 03:24:02 PM 52.3667 -108.9500 223° Southwest 490 564 38,000  Level Edmonton Center
Tue 03:25:02 PM 52.2667 -109.1000 223° Southwest 490 564 38,000  Level Edmonton Center
Tue 03:26:02 PM 52.1500 -109.2667 221° Southwest 490 564 38,000  Level Edmonton Center
Tue 03:27:02 PM 52.0667 -109.3833 221° Southwest 490 564 38,000  Level Edmonton Center
Tue 03:28:02 PM 51.9500 -109.5500 221° Southwest 490 564 38,000  Level Edmonton Center
Tue 03:29:02 PM 51.8500 -109.7000 223° Southwest 490 564 38,000  Level Edmonton Center
Tue 03:30:02 PM 51.7500 -109.8167 216° Southwest 490 564 38,000  Level Edmonton Center
Tue 03:31:02 PM 51.6500 -109.9667 223° Southwest 490 564 38,000  Level Edmonton Center
Tue 03:32:02 PM 51.5333 -110.1167 219° Southwest 490 564 38,000  Level Edmonton Center
Tue 03:33:02 PM 51.4333 -110.2667 223° Southwest 490 564 38,000  Level Edmonton Center
Tue 03:34:02 PM 51.3333 -110.4000 220° Southwest 490 564 38,000  Level Edmonton Center
Tue 03:35:02 PM 51.2333 -110.5500 223° Southwest 490 564 38,000  Level Edmonton Center
Tue 03:36:02 PM 51.1167 -110.7000 219° Southwest 490 564 38,000  Level Edmonton Center
Tue 03:37:02 PM 51.0167 -110.8333 220° Southwest 490 564 38,000  Level Edmonton Center
Tue 03:38:02 PM 50.9167 -110.9833 223° Southwest 490 564 38,000  Level Edmonton Center
Tue 03:39:02 PM 50.8167 -111.1167 220° Southwest 500 575 38,000  Level Edmonton Center
Tue 03:40:02 PM 50.7000 -111.2500 216° Southwest 500 575 38,000  Level Edmonton Center
Tue 03:41:02 PM 50.6000 -111.4000 224° Southwest 490 564 38,000  Level Edmonton Center
Tue 03:42:02 PM 50.5000 -111.5500 224° Southwest 500 575 38,000  Level Edmonton Center
Tue 03:43:02 PM 50.3833 -111.6833 216° Southwest 500 575 38,000  Level Edmonton Center
Tue 03:44:02 PM 50.2833 -111.8333 224° Southwest 490 564 38,000  Level Edmonton Center
Tue 03:45:02 PM 50.1667 -111.9667 216° Southwest 500 575 38,000  Level Edmonton Center
Tue 03:46:02 PM 50.0833 -112.0833 222° Southwest 490 564 38,000  Level Edmonton Center
Tue 03:47:02 PM 49.9667 -112.2333 220° Southwest 490 564 38,000  Level Edmonton Center
Tue 03:48:02 PM 49.8500 -112.3667 216° Southwest 490 564 38,000  Level Edmonton Center
Tue 03:49:02 PM 49.7500 -112.5000 221° Southwest 490 564 38,000  Level Edmonton Center
Tue 03:50:02 PM 49.6333 -112.6500 220° Southwest 490 564 38,000  Level Edmonton Center
Tue 03:51:02 PM 49.5333 -112.7833 221° Southwest 490 564 38,000  Level Edmonton Center
Tue 03:52:02 PM 49.4333 -112.9167 221° Southwest 490 564 38,000  Level Edmonton Center
Tue 03:53:02 PM 49.3333 -113.0667 224° Southwest 490 564 38,000  Level Edmonton Center
Tue 03:54:02 PM 49.2333 -113.2167 224° Southwest 490 564 38,000  Level Edmonton Center
Tue 03:55:02 PM 49.1333 -113.3667 224° Southwest 490 564 38,000  Level Edmonton Center
Tue 03:56:02 PM 49.0333 -113.5000 221° Southwest 490 564 38,000  Level Edmonton Center
Tue 03:57:02 PM 48.9333 -113.6333 221° Southwest 500 575 38,000  Level Edmonton Center
Tue 03:58:02 PM 48.8333 -113.7667 221° Southwest 490 564 38,000  Level Edmonton Center
Tue 03:58:39 PM 48.8175 -113.8269 248° West 495 570 38,000  Level Salt Lake Center
Tue 03:59:40 PM 48.7156 -113.9683 222° Southwest 495 570 38,000  Level Salt Lake Center
Tue 04:00:42 PM 48.5933 -114.1364 222° Southwest 496 571 38,000  Level Salt Lake Center
Tue 04:01:44 PM 48.4908 -114.2758 222° Southwest 497 572 38,000  Level Salt Lake Center
Tue 04:02:45 PM 48.3886 -114.4147 222° Southwest 498 573 38,000  Level Salt Lake Center
Tue 04:03:43 PM 48.2864 -114.5528 222° Southwest 498 573 38,000  Level Seattle Center
Tue 04:04:24 PM 48.2258 -114.6342 222° Southwest 498 573 38,000  Level Salt Lake Center
Tue 04:05:25 PM 48.1247 -114.7694 222° Southwest 498 573 38,000  Level Salt Lake Center
Tue 04:06:27 PM 48.0028 -114.9328 222° Southwest 498 573 38,000  Level Salt Lake Center
Tue 04:07:28 PM 47.9011 -115.0686 222° Southwest 498 573 38,000  Level Salt Lake Center
Tue 04:08:30 PM 47.7803 -115.1883 214° Southwest 531 611 38,000  Level Salt Lake Center
Tue 04:09:32 PM 47.6975 -115.3358 230° Southwest 495 570 38,000  Level Salt Lake Center
Tue 04:10:33 PM 47.5953 -115.4697 221° Southwest 493 567 38,000  Level Salt Lake Center
Tue 04:11:35 PM 47.4944 -115.6008 221° Southwest 491 565 38,000  Level Salt Lake Center
Tue 04:12:37 PM 47.3656 -115.7500 218° Southwest 491 565 38,000  Level Salt Lake Center
Tue 04:13:38 PM 47.2550 -115.8678 216° Southwest 491 565 38,000  Level Salt Lake Center
Tue 04:14:40 PM 47.1447 -115.9881 217° Southwest 492 566 38,000  Level Salt Lake Center
Tue 04:15:41 PM 47.0417 -116.0964 216° Southwest 492 566 38,000  Level Salt Lake Center
Tue 04:16:43 PM 46.9314 -116.2144 216° Southwest 493 567 38,000  Level Salt Lake Center
Tue 04:17:45 PM 46.7978 -116.3569 216° Southwest 493 567 38,000  Level Salt Lake Center
Tue 04:18:46 PM 46.6869 -116.4736 216° Southwest 493 567 38,000  Level Salt Lake Center
Tue 04:19:48 PM 46.5744 -116.5917 216° Southwest 493 567 38,000  Level Salt Lake Center
Tue 04:20:59 PM 46.4406 -116.7333 216° Southwest 497 572 38,000  Level Seattle Center
Tue 04:22:00 PM 46.3283 -116.8481 215° Southwest 495 570 38,000  Level Seattle Center
Tue 04:23:01 PM 46.2167 -116.9639 216° Southwest 495 570 38,000  Level Seattle Center
Tue 04:24:02 PM 46.1050 -117.0769 215° Southwest 492 566 38,000  Level Seattle Center
Tue 04:25:03 PM 45.9939 -117.1917 216° Southwest 491 565 38,000  Level Seattle Center
Tue 04:26:04 PM 45.8831 -117.3044 215° Southwest 491 565 38,000  Level Seattle Center
Tue 04:27:05 PM 45.7717 -117.4178 215° Southwest 491 565 38,000  Level Seattle Center
Tue 04:27:54 PM 45.6667 -117.5219 215° Southwest 490 564 38,000  Level Seattle Center
Tue 04:28:55 PM 45.5733 -117.6164 215° Southwest 490 564 38,000  Level Seattle Center
Tue 04:29:56 PM 45.4394 -117.7497 215° Southwest 490 564 38,000  Level Seattle Center
Tue 04:30:57 PM 45.3278 -117.8600 215° Southwest 490 564 38,000  Level Seattle Center
Tue 04:31:58 PM 45.2164 -117.9711 215° Southwest 490 564 38,000  Level Seattle Center
Tue 04:32:59 PM 45.1114 -118.0739 215° Southwest 489 563 38,000  Level Seattle Center
Tue 04:34:00 PM 44.9936 -118.1889 215° Southwest 487 560 38,000  Level Seattle Center
Tue 04:35:01 PM 44.8822 -118.2989 215° Southwest 487 560 38,000  Level Seattle Center
Tue 04:36:02 PM 44.7703 -118.4064 214° Southwest 488 562 38,000  Level Seattle Center
Tue 04:37:03 PM 44.6614 -118.5136 215° Southwest 483 556 38,000  Level Seattle Center
Tue 04:38:04 PM 44.5500 -118.6208 214° Southwest 483 556 38,000  Level Seattle Center
Tue 04:39:05 PM 44.4369 -118.7278 214° Southwest 484 557 38,000  Level Seattle Center
Tue 04:40:06 PM 44.3228 -118.8364 214° Southwest 491 565 38,000  Level Seattle Center
Tue 04:41:07 PM 44.2125 -118.9408 214° Southwest 486 559 38,000  Level Seattle Center
Tue 04:42:08 PM 44.1017 -119.0439 214° Southwest 475 547 38,000  Level Seattle Center
Tue 04:43:09 PM 43.9886 -119.1511 214° Southwest 485 558 38,000  Level Seattle Center
Tue 04:44:10 PM 43.8761 -119.2558 214° Southwest 486 559 38,000  Level Seattle Center
Tue 04:45:11 PM 43.7419 -119.3800 214° Southwest 486 559 38,000  Level Seattle Center
Tue 04:46:12 PM 43.6292 -119.4831 213° Southwest 485 558 38,000  Level Seattle Center
Tue 04:47:13 PM 43.5156 -119.5894 214° Southwest 491 565 38,000  Level Seattle Center
Tue 04:48:14 PM 43.4017 -119.6925 213° Southwest 490 564 38,000  Level Seattle Center
Tue 04:49:15 PM 43.2881 -119.7747 208° Southwest 496 571 38,000  Level Seattle Center
Tue 04:50:16 PM 43.1644 -119.8553 205° Southwest 496 571 38,000  Level Seattle Center
Tue 04:51:17 PM 43.0394 -119.9333 205° Southwest 494 568 38,000  Level Seattle Center
Tue 04:52:18 PM 42.9131 -120.0128 205° Southwest 495 570 38,000  Level Seattle Center
Tue 04:53:19 PM 42.7642 -120.1047 204° Southwest 494 568 38,000  Level Seattle Center
Tue 04:54:20 PM 42.6417 -120.1833 205° Southwest 490 564 38,000  Level Seattle Center
Tue 04:55:21 PM 42.5175 -120.2589 204° Southwest 490 564 38,000  Level Seattle Center
Tue 04:56:22 PM 42.3931 -120.3347 204° Southwest 490 564 38,000  Level Seattle Center
Tue 04:57:23 PM 42.2717 -120.4133 206° Southwest 486 559 38,000  Level Seattle Center
Tue 04:58:24 PM 42.1486 -120.4903 205° Southwest 487 560 38,000  Level Seattle Center
Tue 04:59:25 PM 42.0269 -120.5672 205° Southwest 486 559 38,000  Level Seattle Center
Tue 05:00:26 PM 41.9019 -120.6436 204° Southwest 488 562 38,000  Level Seattle Center
Tue 05:01:27 PM 41.7803 -120.7186 205° Southwest 482 555 38,000  Level Seattle Center
Tue 05:07:28 PM 41.0180 -121.1819 205° Southwest 494 568 38,000  Level FlightAware ADS-B
Tue 05:07:59 PM 40.9532 -121.2208 204° Southwest 496 571 38,000  Level FlightAware ADS-B
Tue 05:08:38 PM 40.8713 -121.2697 204° Southwest 496 571 38,000  Level FlightAware ADS-B
Tue 05:09:23 PM 40.7787 -121.3246 204° Southwest 496 571 38,000  Level FlightAware ADS-B
Tue 05:09:53 PM 40.7149 -121.3633 204° Southwest 495 570 38,000  Level FlightAware ADS-B
Tue 05:10:39 PM 40.6188 -121.4203 204° Southwest 493 567 38,000  Level FlightAware ADS-B
Tue 05:11:09 PM 40.5585 -121.4561 204° Southwest 492 566 38,000  Level FlightAware ADS-B
Tue 05:11:49 PM 40.4738 -121.5063 204° Southwest 490 564 38,000  Level FlightAware ADS-B
Tue 05:12:19 PM 40.4130 -121.5417 204° Southwest 491 565 38,000  Level FlightAware ADS-B
Tue 05:12:49 PM 40.3496 -121.5794 204° Southwest 490 564 38,000  Level FlightAware ADS-B
Tue 05:13:19 PM 40.2884 -121.6147 204° Southwest 489 563 38,000  Level FlightAware ADS-B
Tue 05:13:55 PM 40.2223 -121.6534 204° Southwest 489 563 38,000  Level FlightAware ADS-B
Tue 05:14:28 PM 40.1583 -121.6908 204° Southwest 488 562 38,000  Level FlightAware ADS-B
Tue 05:15:54 PM 39.9692 -121.8009 204° Southwest 483 556 38,000  Level FlightAware ADS-B
Tue 05:16:32 PM 39.8937 -121.8447 204° Southwest 479 551 38,000  Level FlightAware ADS-B
Tue 05:17:03 PM 39.8307 -121.8821 204° Southwest 476 548 38,000  Level FlightAware ADS-B
Tue 05:17:35 PM 39.7662 -121.9192 204° Southwest 475 547 38,000  Level FlightAware ADS-B
Tue 05:18:19 PM 39.6975 -121.9578 204° Southwest 475 547 38,000  Level Oakland Center
Tue 05:19:20 PM 39.5772 -122.0289 205° Southwest 473 544 38,000  Level Oakland Center
Tue 05:20:22 PM 39.4450 -122.1031 203° Southwest 472 543 38,000  Level Oakland Center
Tue 05:21:23 PM 39.3250 -122.1719 204° Southwest 472 543 38,000 -780 Level Oakland Center
Tue 05:22:25 PM 39.2100 -122.2378 204° Southwest 460 529 36,400 -1,805 Descending Oakland Center
Tue 05:23:26 PM 39.0978 -122.3014 204° Southwest 446 513 34,300 -1,672 Descending Oakland Center
Tue 05:24:27 PM 38.9850 -122.3647 204° Southwest 444 511 33,000 -1,854 Descending Oakland Center
Tue 05:25:29 PM 38.8467 -122.4436 204° Southwest 454 522 30,500 -2,098 Descending Oakland Center
Tue 05:26:30 PM 38.7339 -122.5064 203° Southwest 445 512 28,700 -1,756 Descending Oakland Center
Tue 05:27:32 PM 38.6408 -122.5575 203° Southwest 427 491 26,900 -2,195 Descending Oakland Center
Tue 05:28:33 PM 38.5139 -122.6289 204° Southwest 418 481 24,200 -2,311 Descending Oakland Center
Tue 05:29:34 PM 38.4100 -122.6853 203° Southwest 410 472 22,200 -1,854 Descending Oakland Center
Tue 05:30:36 PM 38.3086 -122.7411 203° Southwest 401 461 20,400 -1,773 Descending Oakland Center
Tue 05:35:53 PM 37.8498 -122.6189 140° Southeast 302 348 11,000 -1,640 Descending FlightAware ADS-B (EPLL / LCJ)
Tue 05:36:20 PM 37.8195 -122.5870 140° Southeast 307 353 11,000  Level FlightAware ADS-B
Tue 05:37:09 PM 37.7675 -122.5320 140° Southeast 307 353 11,000  Level FlightAware ADS-B
Tue 05:37:14 PM 37.7622 -122.5257 140° Southeast 286 329 11,000  Level FlightAware ADS-B (EPLL / LCJ)
Tue 05:37:46 PM 37.7299 -122.4915 140° Southeast 283 326 11,000  Level FlightAware ADS-B (EPLL / LCJ)
Tue 05:38:08 PM 37.7083 -122.4690 140° Southeast 282 325 11,000  Level FlightAware ADS-B
Tue 05:38:46 PM 37.6703 -122.4280 140° Southeast 285 328 11,000  Level FlightAware ADS-B
Tue 05:39:16 PM 37.6396 -122.3950 140° Southeast 282 325 11,000  Level FlightAware ADS-B
Tue 05:39:20 PM 37.6365 -122.3921 140° Southeast 283 326 11,000  Level FlightAware ADS-B (EPLL / LCJ)
Tue 05:39:36 PM 37.6187 -122.3750 149° Southeast 283 326 11,000  Level FlightAware ADS-B
Tue 05:39:40 PM 37.6154 -122.3729 151° Southeast 282 325 11,000 -800 Level FlightAware ADS-B (EPLL / LCJ)
Tue 05:40:06 PM 37.5840 -122.3530 154° Southeast 275 316 10,600 -1,224 Descending FlightAware ADS-B
Tue 05:40:29 PM 37.5580 -122.3370 154° Southeast 272 313 10,000 -1,556 Descending FlightAware ADS-B
Tue 05:40:33 PM 37.5547 -122.3352 155° Southeast 270 311 9,900 -1,200 Descending FlightAware ADS-B (EPLL / LCJ)
Tue 05:40:44 PM 37.5412 -122.3270 155° Southeast 265 305 9,700 -1,385 Descending FlightAware ADS-B
Tue 05:40:59 PM 37.5245 -122.3170 154° Southeast 260 299 9,300 -1,400 Descending FlightAware ADS-B
Tue 05:41:14 PM 37.5081 -122.3070 154° Southeast 260 299 9,000 -563 Descending FlightAware ADS-B
Tue 05:41:31 PM 37.4899 -122.2970 154° Southeast 270 311 9,000  Level FlightAware ADS-B
Tue 05:41:47 PM 37.4716 -122.2850 154° Southeast 267 307 9,000  Level FlightAware ADS-B
Tue 05:42:06 PM 37.4505 -122.2720 154° Southeast 263 303 9,000  Level FlightAware ADS-B
Tue 05:42:21 PM 37.4342 -122.2620 154° Southeast 258 297 9,000  Level FlightAware ADS-B
Tue 05:42:36 PM 37.4180 -122.2520 154° Southeast 257 296 9,000  Level FlightAware ADS-B
Tue 05:42:51 PM 37.4017 -122.2430 154° Southeast 261 300 9,000  Level FlightAware ADS-B
Tue 05:43:00 PM 37.4371 -122.2642 154° Southeast 261 300 9,000  Level FlightAware ADS-B (EPLL / LCJ)
Tue 05:43:07 PM 37.3849 -122.2330 154° Southeast 263 303 9,000  Level FlightAware ADS-B
Tue 05:43:24 PM 37.3656 -122.2210 154° Southeast 265 305 9,000  Level FlightAware ADS-B
Tue 05:43:29 PM 37.3603 -122.2170 156° South 266 306 9,000  Level FlightAware ADS-B
Tue 05:43:33 PM 37.3558 -122.2150 160° South 265 305 9,000  Level FlightAware ADS-B
Tue 05:43:37 PM 37.3514 -122.2140 167° South 265 305 9,000  Level FlightAware ADS-B
Tue 05:43:42 PM 37.3445 -122.2130 174° South 263 303 9,000  Level FlightAware ADS-B
Tue 05:43:47 PM 37.3383 -122.2130 184° South 260 299 9,000  Level FlightAware ADS-B
Tue 05:43:52 PM 37.3336 -122.2140 190° South 257 296 9,000  Level FlightAware ADS-B
Tue 05:44:07 PM 37.3160 -122.2190 194° South 254 292 9,000  Level FlightAware ADS-B
Tue 05:44:23 PM 37.2978 -122.2250 194° South 255 293 9,000 -391 Level FlightAware ADS-B
Tue 05:44:53 PM 37.2625 -122.2350 193° South 253 291 8,700 -522 Descending FlightAware ADS-B
Tue 05:45:09 PM 37.2442 -122.2400 193° South 257 296 8,600 -545 Descending FlightAware ADS-B
Tue 05:45:15 PM 37.2381 -122.2420 199° South 255 293 8,500 -667 Descending FlightAware ADS-B
Tue 05:45:18 PM 37.2349 -122.2440 204° Southwest 254 292 8,500 -857 Level FlightAware ADS-B
Tue 05:45:36 PM 37.2198 -122.2630 240° Southwest 247 284 8,200 -800 Descending FlightAware ADS-B
Tue 05:45:48 PM 37.2162 -122.2790 264° West 240 276 8,100 -500 Descending FlightAware ADS-B
Tue 05:46:00 PM 37.2182 -122.2950 289° West 234 269 8,000 -316 Descending FlightAware ADS-B
Tue 05:46:07 PM 37.2218 -122.3020 302° West 231 266 8,000  Level FlightAware ADS-B
Tue 05:46:11 PM 37.2247 -122.3070 312° West 231 266 8,000 -673 Level FlightAware ADS-B
Tue 05:47:45 PM 37.3150 -122.3610 334° Northwest 228 262 6,900 -764 Descending FlightAware ADS-B
Tue 05:48:01 PM 37.3306 -122.3710 334° Northwest 232 267 6,600 -1,091 Descending FlightAware ADS-B
Tue 05:48:07 PM 37.3366 -122.3740 337° Northwest 233 268 6,500 -600 Descending FlightAware ADS-B
Tue 05:48:11 PM 37.3405 -122.3760 341° North 233 268 6,500 -667 Level FlightAware ADS-B
Tue 05:48:25 PM 37.3552 -122.3770 North 231 266 6,300 -600 Descending FlightAware ADS-B
Tue 05:48:31 PM 37.3613 -122.3760 14° North 228 262 6,300 -273 Level FlightAware ADS-B
Tue 05:48:47 PM 37.3782 -122.3690 17° North 228 262 6,200 -480 Descending FlightAware ADS-B
Tue 05:48:56 PM 37.3865 -122.3660 21° North 228 262 6,100 -1,000 Descending FlightAware ADS-B
Tue 05:48:59 PM 37.3902 -122.3640 25° Northeast 228 262 6,000 -857 Descending FlightAware ADS-B
Tue 05:49:03 PM 37.3937 -122.3610 33° Northeast 229 264 6,000  Level FlightAware ADS-B
Tue 05:49:07 PM 37.3969 -122.3570 44° Northeast 231 266 6,000  Level FlightAware ADS-B
Tue 05:49:12 PM 37.3998 -122.3530 53° Northeast 233 268 6,000  Level FlightAware ADS-B
Tue 05:49:18 PM 37.4033 -122.3450 63° Northeast 237 273 6,000  Level FlightAware ADS-B
Tue 05:49:22 PM 37.4052 -122.3400 69° East 236 272 6,000  Level FlightAware ADS-B
Tue 05:49:25 PM 37.4062 -122.3360 74° East 236 272 6,000  Level FlightAware ADS-B
Tue 05:49:30 PM 37.4071 -122.3310 81° East 238 274 6,000  Level FlightAware ADS-B
Tue 05:49:36 PM 37.4077 -122.3210 87° East 240 276 6,000  Level FlightAware ADS-B
Tue 05:49:51 PM 37.4082 -122.3000 89° East 240 276 6,000  Level FlightAware ADS-B
Tue 05:50:40 PM 37.4090 -122.2320 90° East 241 277 6,000  Level FlightAware ADS-B
Tue 05:50:55 PM 37.4091 -122.2110 90° East 239 275 6,000  Level FlightAware ADS-B
Tue 05:51:11 PM 37.4091 -122.1900 90° East 219 252 6,000  Level FlightAware ADS-B
Tue 05:51:14 PM 37.4091 -122.1871 90° East 212 244 6,000  Level FlightAware ADS-B (EPLL / LCJ)
Tue 05:51:27 PM 37.4091 -122.1700 90° East 200 230 6,000  Level FlightAware ADS-B
Tue 05:51:31 PM 37.4092 -122.1650 88° East 197 227 6,000  Level FlightAware ADS-B
Tue 05:51:34 PM 37.4095 -122.1620 84° East 195 224 6,000  Level FlightAware ADS-B
Tue 05:51:37 PM 37.4100 -122.1590 79° East 195 224 6,000  Level FlightAware ADS-B
Tue 05:51:42 PM 37.4112 -122.1550 68° East 191 220 6,000  Level FlightAware ADS-B
Tue 05:51:47 PM 37.4136 -122.1490 55° Northeast 188 216 6,000  Level FlightAware ADS-B
Tue 05:51:50 PM 37.4092 -122.1690 90° East 199 229 6,000  Level FlightAware ADS-B (EPLL / LCJ)
Tue 05:51:51 PM 37.4158 -122.1460 45° Northeast 187 215 6,000  Level FlightAware ADS-B
Tue 05:51:54 PM 37.4179 -122.1440 38° Northeast 186 214 6,000  Level FlightAware ADS-B
Tue 05:51:58 PM 37.4211 -122.1410 30° Northeast 184 212 6,000  Level FlightAware ADS-B
Tue 05:52:01 PM 37.4225 -122.1402 29° Northeast 184 212 6,000 -375 Level FlightAware ADS-B
Tue 05:52:14 PM 37.4333 -122.1330 27° Northeast 181 208 5,900 -720 Descending FlightAware ADS-B
Tue 05:52:26 PM 37.4422 -122.1280 28° Northeast 178 205 5,700 -923 Descending FlightAware ADS-B
Tue 05:52:27 PM 37.4366 -122.1314 27° Northeast 180 207 5,700 -750 Level FlightAware ADS-B
Tue 05:52:34 PM 37.4473 -122.1240 28° Northeast 178 205 5,600 -1,000 Descending FlightAware ADS-B
Tue 05:52:51 PM 37.4610 -122.1200 360° North 181 208 5,300 -1,091 Descending FlightAware ADS-B
Tue 05:52:56 PM 37.4651 -122.1210 348° North 180 207 5,200 -923 Descending FlightAware ADS-B
Tue 05:53:04 PM 37.4714 -122.1240 336° Northwest 180 207 5,100 -1,091 Descending FlightAware ADS-B
Tue 05:53:18 PM 37.4819 -122.1310 332° Northwest 180 207 4,800 -1,448 Descending FlightAware ADS-B
Tue 05:53:33 PM 37.4930 -122.1380 332° Northwest 179 206 4,400 -1,714 Descending FlightAware ADS-B
Tue 05:53:39 PM 37.4957 -122.1402 332° Northwest 181 208 4,200 -1,200 Descending FlightAware ADS-B (EPLL / LCJ)
Tue 05:53:48 PM 37.5044 -122.1460 332° Northwest 182 209 4,100 -1,143 Descending FlightAware ADS-B
Tue 05:54:00 PM 37.5134 -122.1520 332° Northwest 185 213 3,800 -1,636 Descending FlightAware ADS-B
Tue 05:54:10 PM 37.5214 -122.1570 330° Northwest 187 215 3,500 -1,600 Descending FlightAware ADS-B
Tue 05:54:15 PM 37.5245 -122.1600 325° Northwest 188 216 3,400 -1,500 Descending FlightAware ADS-B
Tue 05:54:18 PM 37.5267 -122.1620 321° Northwest 190 219 3,300 -857 Descending FlightAware ADS-B
Tue 05:54:22 PM 37.5294 -122.1660 312° West 190 219 3,300 -667 Level FlightAware ADS-B
Tue 05:54:27 PM 37.5320 -122.1700 306° West 190 219 3,200 -750 Descending FlightAware ADS-B
Tue 05:54:30 PM 37.5336 -122.1730 303° West 189 217 3,200 -1,091 Level FlightAware ADS-B
Tue 05:54:38 PM 37.5369 -122.1790 298° West 191 220 3,000 -1,143 Descending FlightAware ADS-B
Tue 05:54:51 PM 37.5420 -122.1920 297° West 190 219 2,800 -857 Descending FlightAware ADS-B
Tue 05:55:06 PM 37.5483 -122.2080 298° West 187 215 2,600 -923 Descending FlightAware ADS-B
Tue 05:55:17 PM 37.5527 -122.2170 298° West 187 215 2,400 -923 Descending FlightAware ADS-B
Tue 05:55:32 PM 37.5587 -122.2320 298° West 175 201 2,200 -1,000 Descending FlightAware ADS-B
Tue 05:55:41 PM 37.5622 -122.2400 298° West 166 191 2,000 -960 Descending FlightAware ADS-B
Tue 05:55:57 PM 37.5677 -122.2540 298° West 156 180 1,800 -900 Descending FlightAware ADS-B
Tue 05:56:01 PM 37.5649 -122.2470 298° West 149 171 1,700 -800 Descending FlightAware ADS-B (EPLL / LCJ)
Tue 05:56:12 PM 37.5727 -122.2650 298° West 147 169 1,600 -667 Descending FlightAware ADS-B
Tue 05:56:28 PM 37.5776 -122.2770 298° West 146 168 1,400 -774 Descending FlightAware ADS-B
Tue 05:56:43 PM 37.5822 -122.2880 298° West 143 165 1,200 -774 Descending FlightAware ADS-B
Tue 05:56:59 PM 37.5873 -122.3000 298° West 145 167 1,000 -727 Descending FlightAware ADS-B
Tue 05:57:16 PM 37.5926 -122.3120 298° West 141 162 800 -667 Descending FlightAware ADS-B
Tue 05:57:35 PM 37.5985 -122.3260 298° West 143 165 600 -706 Descending FlightAware ADS-B
Tue 05:57:50 PM 37.6031 -122.3380 297° West 141 162 400 -720 Descending FlightAware ADS-B
Tue 05:58:00 PM 37.6063 -122.3450 298° West 144 166 300 -667 Descending FlightAware ADS-B
Tue 05:58:17 PM 37.6115 -122.3570 298° West 149 171 100 -706 Descending FlightAware ADS-B

Login

Don't have an account? Register now (free) for customized features, flight alerts, and more!